Observation data for Lomax on 05/13/2018      Previous  Date  Next       Current Mesonet Observations  Soil Data  Daily Summary Page  Observations in Plain Language
KLO1 130500Z 16015KT 28/15 A2993 RMK A01 T02800150  RH  045%=      5-min Rain = 0
KLO1 130501Z 16014KT 28/15 A2993 RMK A01 T02800150  RH  045%=      5-min Rain = 0
KLO1 130502Z 16015KT 28/15 A2993 RMK A01 T02790150  RH  045%=      5-min Rain = 0
KLO1 130503Z 16014KT 28/15 A2993 RMK A01 T02790150  RH  045%=      5-min Rain = 0
KLO1 130504Z 16015KT 28/15 A2993 RMK A01 T02780150  RH  045%=      5-min Rain = 0
KLO1 130505Z 16016KT 28/15 A2993 RMK A01 T02780150  RH  046%=      5-min Rain = 0
KLO1 130506Z 15016KT 28/15 A2993 RMK A01 T02780150  RH  046%=      5-min Rain = 0
KLO1 130507Z 16014KT 28/15 A2993 RMK A01 T02770150  RH  046%=      5-min Rain = 0
KLO1 130508Z 16015KT 28/15 A2993 RMK A01 T02770150  RH  046%=      5-min Rain = 0
KLO1 130509Z 15015G21KT 28/15 A2993 RMK A01 T02770150  RH  046%=      5-min Rain = 0
KLO1 130510Z 16018KT 28/15 A2993 RMK A01 T02770151  RH  046%=      5-min Rain = 0
KLO1 130511Z 16017KT 28/15 A2993 RMK A01 T02770152  RH  046%=      5-min Rain = 0
KLO1 130512Z 16013KT 28/15 A2993 RMK A01 T02770151  RH  046%=      5-min Rain = 0
KLO1 130513Z 16015KT 28/15 A2993 RMK A01 T02760151  RH  046%=      5-min Rain = 0
KLO1 130514Z 16016KT 28/15 A2993 RMK A01 T02760152  RH  047%=      5-min Rain = 0
KLO1 130515Z 16016KT 28/15 A2993 RMK A01 T02750152  RH  047%=      5-min Rain = 0
KLO1 130516Z 16013KT 28/15 A2993 RMK A01 T02750152  RH  047%=      5-min Rain = 0
KLO1 130517Z 16015G20KT 28/15 A2993 RMK A01 T02750152  RH  047%=      5-min Rain = 0
KLO1 130518Z 16018KT 27/15 A2993 RMK A01 T02740153  RH  047%=      5-min Rain = 0
KLO1 130519Z 16019KT 28/15 A2993 RMK A01 T02750154  RH  048%=      5-min Rain = 0
KLO1 130520Z 16017KT 28/15 A2993 RMK A01 T02750154  RH  048%=      5-min Rain = 0
KLO1 130521Z 16015KT 28/15 A2993 RMK A01 T02750154  RH  048%=      5-min Rain = 0
KLO1 130522Z 16016KT 27/15 A2993 RMK A01 T02740154  RH  048%=      5-min Rain = 0
KLO1 130523Z 17020KT 27/15 A2993 RMK A01 T02740154  RH  048%=      5-min Rain = 0
KLO1 130524Z 16016KT 27/16 A2993 RMK A01 T02740155  RH  048%=      5-min Rain = 0
KLO1 130525Z 16015G20KT 27/16 A2993 RMK A01 T02740155  RH  048%=      5-min Rain = 0
KLO1 130526Z 16017KT 27/16 A2993 RMK A01 T02730155  RH  048%=      5-min Rain = 0
KLO1 130527Z 16016KT 27/16 A2993 RMK A01 T02730155  RH  048%=      5-min Rain = 0
KLO1 130528Z 16016KT 27/16 A2993 RMK A01 T02730155  RH  049%=      5-min Rain = 0
KLO1 130529Z 16016KT 27/16 A2993 RMK A01 T02730156  RH  049%=      5-min Rain = 0
KLO1 130530Z 16015G22KT 27/16 A2993 RMK A01 T02730156  RH  049%=      5-min Rain = 0
KLO1 130531Z 16017KT 27/16 A2993 RMK A01 T02730156  RH  049%=      5-min Rain = 0
KLO1 130532Z 16015KT 27/16 A2993 RMK A01 T02720156  RH  049%=      5-min Rain = 0
KLO1 130533Z 16015KT 27/16 A2993 RMK A01 T02720156  RH  049%=      5-min Rain = 0
KLO1 130534Z 16014KT 27/16 A2993 RMK A01 T02720156  RH  049%=      5-min Rain = 0
KLO1 130535Z 16015G20KT 27/16 A2993 RMK A01 T02710156  RH  049%=      5-min Rain = 0
KLO1 130536Z 16017KT 27/16 A2993 RMK A01 T02710157  RH  050%=      5-min Rain = 0
KLO1 130537Z 16015KT 27/16 A2993 RMK A01 T02710157  RH  050%=      5-min Rain = 0
KLO1 130538Z 16016G21KT 27/16 A2993 RMK A01 T02710157  RH  050%=      5-min Rain = 0
KLO1 130539Z 16013KT 27/16 A2994 RMK A01 T02710157  RH  050%=      5-min Rain = 0
KLO1 130540Z 16015KT 27/16 A2993 RMK A01 T02700157  RH  050%=      5-min Rain = 0
KLO1 130541Z 16016KT 27/16 A2993 RMK A01 T02700157  RH  050%=      5-min Rain = 0
KLO1 130542Z 16014KT 27/16 A2993 RMK A01 T02700158  RH  050%=      5-min Rain = 0
KLO1 130543Z 16013KT 27/16 A2993 RMK A01 T02690157  RH  050%=      5-min Rain = 0
KLO1 130544Z 16015G20KT 27/16 A2994 RMK A01 T02690157  RH  050%=      5-min Rain = 0
KLO1 130545Z 16016KT 27/16 A2994 RMK A01 T02680158  RH  051%=      5-min Rain = 0
KLO1 130546Z 16017G22KT 27/16 A2993 RMK A01 T02680158  RH  051%=      5-min Rain = 0
KLO1 130547Z 16015KT 27/16 A2994 RMK A01 T02680158  RH  051%=      5-min Rain = 0
KLO1 130548Z 16013KT 27/16 A2994 RMK A01 T02680158  RH  051%=      5-min Rain = 0
KLO1 130549Z 16016KT 27/16 A2994 RMK A01 T02680158  RH  051%=      5-min Rain = 0
KLO1 130550Z 16015KT 27/16 A2994 RMK A01 T02670158  RH  051%=      5-min Rain = 0
KLO1 130551Z 16015KT 27/16 A2994 RMK A01 T02670159  RH  051%=      5-min Rain = 0
KLO1 130552Z 16016KT 27/16 A2994 RMK A01 T02670159  RH  051%=      5-min Rain = 0
KLO1 130553Z 16016KT 27/16 A2994 RMK A01 T02670159  RH  052%=      5-min Rain = 0
KLO1 130554Z 16014KT 27/16 A2994 RMK A01 T02670159  RH  052%=      5-min Rain = 0
KLO1 130555Z 16014G21KT 27/16 A2994 RMK A01 T02670160  RH  052%=      5-min Rain = 0
KLO1 130556Z 16015KT 27/16 A2994 RMK A01 T02660160  RH  052%=      5-min Rain = 0
KLO1 130557Z 16014KT 27/16 A2994 RMK A01 T02660160  RH  052%=      5-min Rain = 0
KLO1 130558Z 16016KT 27/16 A2994 RMK A01 T02660160  RH  052%=      5-min Rain = 0
KLO1 130559Z 16016KT 27/16 A2994 RMK A01 T02650160  RH  052%=      5-min Rain = 0
KLO1 130600Z 16015KT 27/16 A2994 RMK A01 T02660160  RH  052%=      5-min Rain = 0
KLO1 130601Z 16015KT 27/16 A2994 RMK A01 T02660160  RH  052%=      5-min Rain = 0
KLO1 130602Z 16015KT 27/16 A2994 RMK A01 T02660161  RH  052%=      5-min Rain = 0
KLO1 130603Z 16015KT 27/16 A2994 RMK A01 T02650160  RH  053%=      5-min Rain = 0
KLO1 130604Z 16017KT 27/16 A2994 RMK A01 T02650161  RH  053%=      5-min Rain = 0
KLO1 130605Z 16014KT 27/16 A2994 RMK A01 T02650161  RH  053%=      5-min Rain = 0
KLO1 130606Z 16017KT 27/16 A2994 RMK A01 T02650161  RH  053%=      5-min Rain = 0
KLO1 130607Z 16015KT 27/16 A2994 RMK A01 T02650161  RH  053%=      5-min Rain = 0
KLO1 130608Z 16014KT 27/16 A2994 RMK A01 T02650161  RH  053%=      5-min Rain = 0
KLO1 130609Z 16014KT 27/16 A2994 RMK A01 T02650161  RH  053%=      5-min Rain = 0
KLO1 130610Z 16014KT 26/16 A2994 RMK A01 T02640161  RH  053%=      5-min Rain = 0
KLO1 130611Z 15012KT 26/16 A2994 RMK A01 T02640160  RH  053%=      5-min Rain = 0
KLO1 130612Z 16014KT 26/16 A2994 RMK A01 T02630160  RH  053%=      5-min Rain = 0
KLO1 130613Z 16016KT 26/16 A2994 RMK A01 T02630161  RH  053%=      5-min Rain = 0
KLO1 130614Z 16013KT 26/16 A2994 RMK A01 T02630161  RH  053%=      5-min Rain = 0
KLO1 130615Z 16014KT 26/16 A2994 RMK A01 T02630161  RH  053%=      5-min Rain = 0
KLO1 130616Z 16015KT 26/16 A2994 RMK A01 T02630161  RH  053%=      5-min Rain = 0
KLO1 130617Z 16014KT 26/16 A2994 RMK A01 T02630161  RH  053%=      5-min Rain = 0
KLO1 130618Z 16014KT 26/16 A2994 RMK A01 T02630161  RH  053%=      5-min Rain = 0
KLO1 130619Z 16014KT 26/16 A2994 RMK A01 T02630161  RH  053%=      5-min Rain = 0
KLO1 130620Z 16014KT 26/16 A2994 RMK A01 T02630161  RH  053%=      5-min Rain = 0
KLO1 130621Z 16015KT 26/16 A2994 RMK A01 T02620161  RH  054%=      5-min Rain = 0
KLO1 130622Z 16015KT 26/16 A2994 RMK A01 T02620161  RH  054%=      5-min Rain = 0
KLO1 130623Z 16015KT 26/16 A2994 RMK A01 T02620161  RH  054%=      5-min Rain = 0
KLO1 130624Z 16013KT 26/16 A2994 RMK A01 T02620161  RH  054%=      5-min Rain = 0
KLO1 130625Z 16014KT 26/16 A2994 RMK A01 T02620161  RH  054%=      5-min Rain = 0
KLO1 130626Z 16014KT 26/16 A2994 RMK A01 T02620161  RH  054%=      5-min Rain = 0
KLO1 130627Z 16013KT 26/16 A2994 RMK A01 T02620160  RH  054%=      5-min Rain = 0
KLO1 130628Z 16014KT 26/16 A2994 RMK A01 T02620161  RH  054%=      5-min Rain = 0
KLO1 130629Z 16014KT 26/16 A2994 RMK A01 T02610161  RH  054%=      5-min Rain = 0
KLO1 130630Z 15013KT 26/16 A2994 RMK A01 T02610161  RH  054%=      5-min Rain = 0
KLO1 130631Z 16014KT 26/16 A2994 RMK A01 T02610160  RH  054%=      5-min Rain = 0
KLO1 130632Z 16012KT 26/16 A2994 RMK A01 T02610160  RH  054%=      5-min Rain = 0
KLO1 130633Z 15012KT 26/16 A2994 RMK A01 T02600160  RH  054%=      5-min Rain = 0
KLO1 130634Z 16012KT 26/16 A2994 RMK A01 T02600160  RH  054%=      5-min Rain = 0
KLO1 130635Z 15011KT 26/16 A2994 RMK A01 T02600160  RH  054%=      5-min Rain = 0
KLO1 130636Z 16014KT 26/16 A2994 RMK A01 T02600160  RH  054%=      5-min Rain = 0
KLO1 130637Z 16013KT 26/16 A2994 RMK A01 T02600160  RH  054%=      5-min Rain = 0
KLO1 130638Z 16013KT 26/16 A2994 RMK A01 T02600160  RH  054%=      5-min Rain = 0
KLO1 130639Z 16013KT 26/16 A2994 RMK A01 T02600160  RH  054%=      5-min Rain = 0
KLO1 130640Z 16014KT 26/16 A2994 RMK A01 T02600160  RH  054%=      5-min Rain = 0
KLO1 130641Z 16012KT 26/16 A2994 RMK A01 T02590160  RH  054%=      5-min Rain = 0
KLO1 130642Z 15013KT 26/16 A2994 RMK A01 T02600160  RH  054%=      5-min Rain = 0
KLO1 130643Z 16012KT 26/16 A2994 RMK A01 T02590159  RH  054%=      5-min Rain = 0
KLO1 130644Z 16011KT 26/16 A2994 RMK A01 T02590159  RH  054%=      5-min Rain = 0
KLO1 130645Z 15013KT 26/16 A2994 RMK A01 T02590159  RH  054%=      5-min Rain = 0
KLO1 130646Z 15014KT 26/16 A2994 RMK A01 T02590159  RH  054%=      5-min Rain = 0
KLO1 130647Z 15014KT 26/16 A2994 RMK A01 T02590159  RH  054%=      5-min Rain = 0
KLO1 130648Z 16013KT 26/16 A2994 RMK A01 T02590159  RH  054%=      5-min Rain = 0
KLO1 130649Z 16013KT 26/16 A2994 RMK A01 T02590159  RH  054%=      5-min Rain = 0
KLO1 130650Z 16015KT 26/16 A2994 RMK A01 T02590159  RH  054%=      5-min Rain = 0
KLO1 130651Z 16012KT 26/16 A2994 RMK A01 T02590159  RH  054%=      5-min Rain = 0
KLO1 130652Z 16013KT 26/16 A2994 RMK A01 T02590159  RH  054%=      5-min Rain = 0
KLO1 130653Z 16012KT 26/16 A2994 RMK A01 T02590159  RH  054%=      5-min Rain = 0
KLO1 130654Z 16010KT 26/16 A2994 RMK A01 T02580158  RH  054%=      5-min Rain = 0
KLO1 130655Z 16012KT 26/16 A2994 RMK A01 T02580158  RH  054%=      5-min Rain = 0
KLO1 130656Z 16013KT 26/16 A2994 RMK A01 T02570158  RH  054%=      5-min Rain = 0
KLO1 130657Z 15013KT 26/16 A2994 RMK A01 T02570158  RH  054%=      5-min Rain = 0
KLO1 130658Z 15013KT 26/16 A2994 RMK A01 T02570158  RH  054%=      5-min Rain = 0
KLO1 130659Z 16011KT 26/16 A2994 RMK A01 T02570158  RH  054%=      5-min Rain = 0
KLO1 130700Z 16010KT 26/16 A2994 RMK A01 T02570158  RH  054%=      5-min Rain = 0
KLO1 130701Z 16012KT 26/16 A2994 RMK A01 T02570158  RH  054%=      5-min Rain = 0
KLO1 130702Z 16012KT 26/16 A2994 RMK A01 T02560158  RH  055%=      5-min Rain = 0
KLO1 130703Z 16012KT 26/16 A2994 RMK A01 T02560158  RH  055%=      5-min Rain = 0
KLO1 130704Z 16010KT 26/16 A2994 RMK A01 T02560158  RH  055%=      5-min Rain = 0
KLO1 130705Z 15010KT 26/16 A2994 RMK A01 T02560158  RH  054%=      5-min Rain = 0
KLO1 130706Z 16012KT 26/16 A2993 RMK A01 T02560158  RH  055%=      5-min Rain = 0
KLO1 130707Z 16011KT 26/16 A2994 RMK A01 T02560158  RH  055%=      5-min Rain = 0
KLO1 130708Z 15011KT 26/16 A2993 RMK A01 T02560158  RH  055%=      5-min Rain = 0
KLO1 130709Z 15013KT 26/16 A2993 RMK A01 T02550157  RH  055%=      5-min Rain = 0
KLO1 130710Z 15013KT 26/16 A2993 RMK A01 T02550157  RH  055%=      5-min Rain = 0
KLO1 130711Z 16013KT 26/16 A2993 RMK A01 T02560157  RH  054%=      5-min Rain = 0
KLO1 130712Z 16011KT 26/16 A2993 RMK A01 T02560157  RH  054%=      5-min Rain = 0
KLO1 130713Z 15012KT 26/16 A2993 RMK A01 T02560157  RH  054%=      5-min Rain = 0
KLO1 130714Z 16013KT 26/16 A2993 RMK A01 T02560157  RH  054%=      5-min Rain = 0
KLO1 130715Z 15013KT 26/16 A2993 RMK A01 T02550157  RH  054%=      5-min Rain = 0
KLO1 130716Z 15014KT 26/16 A2993 RMK A01 T02560157  RH  054%=      5-min Rain = 0
KLO1 130717Z 15011KT 26/16 A2993 RMK A01 T02560157  RH  054%=      5-min Rain = 0
KLO1 130718Z 16013KT 26/16 A2993 RMK A01 T02560157  RH  054%=      5-min Rain = 0
KLO1 130719Z 15012KT 26/16 A2993 RMK A01 T02560157  RH  054%=      5-min Rain = 0
KLO1 130720Z 15012KT 26/16 A2993 RMK A01 T02560157  RH  054%=      5-min Rain = 0
KLO1 130721Z 16013KT 26/16 A2993 RMK A01 T02560157  RH  054%=      5-min Rain = 0
KLO1 130722Z 16012KT 26/16 A2993 RMK A01 T02550157  RH  054%=      5-min Rain = 0
KLO1 130723Z 15012KT 26/16 A2993 RMK A01 T02550156  RH  054%=      5-min Rain = 0
KLO1 130724Z 15012KT 26/16 A2993 RMK A01 T02550156  RH  054%=      5-min Rain = 0
KLO1 130725Z 15012KT 26/16 A2993 RMK A01 T02550156  RH  054%=      5-min Rain = 0
KLO1 130726Z 15010KT 26/16 A2993 RMK A01 T02550156  RH  054%=      5-min Rain = 0
KLO1 130727Z 16009KT 25/16 A2993 RMK A01 T02540155  RH  054%=      5-min Rain = 0
KLO1 130728Z 16012KT 25/16 A2993 RMK A01 T02540155  RH  054%=      5-min Rain = 0
KLO1 130729Z 16011KT 25/16 A2993 RMK A01 T02540156  RH  055%=      5-min Rain = 0
KLO1 130730Z 15011KT 25/16 A2993 RMK A01 T02540155  RH  055%=      5-min Rain = 0
KLO1 130731Z 15010KT 25/16 A2993 RMK A01 T02540156  RH  054%=      5-min Rain = 0
KLO1 130732Z 16012KT 25/16 A2993 RMK A01 T02540155  RH  055%=      5-min Rain = 0
KLO1 130733Z 16010KT 25/16 A2993 RMK A01 T02530155  RH  055%=      5-min Rain = 0
KLO1 130734Z 16010KT 25/16 A2993 RMK A01 T02530155  RH  055%=      5-min Rain = 0
KLO1 130735Z 16012KT 25/16 A2993 RMK A01 T02530155  RH  055%=      5-min Rain = 0
KLO1 130736Z 15010KT 25/16 A2993 RMK A01 T02530155  RH  055%=      5-min Rain = 0
KLO1 130737Z 16012KT 25/16 A2993 RMK A01 T02530155  RH  055%=      5-min Rain = 0
KLO1 130738Z 16010KT 25/16 A2993 RMK A01 T02530155  RH  055%=      5-min Rain = 0
KLO1 130739Z 16010KT 25/15 A2993 RMK A01 T02530154  RH  055%=      5-min Rain = 0
KLO1 130740Z 16010KT 25/16 A2993 RMK A01 T02530155  RH  055%=      5-min Rain = 0
KLO1 130741Z 16012KT 25/15 A2993 RMK A01 T02520154  RH  055%=      5-min Rain = 0
KLO1 130742Z 16012KT 25/16 A2993 RMK A01 T02520155  RH  055%=      5-min Rain = 0
KLO1 130743Z 16011KT 25/15 A2993 RMK A01 T02520154  RH  055%=      5-min Rain = 0
KLO1 130744Z 16010KT 25/15 A2993 RMK A01 T02520154  RH  055%=      5-min Rain = 0
KLO1 130745Z 16011KT 25/15 A2993 RMK A01 T02510154  RH  055%=      5-min Rain = 0
KLO1 130746Z 16013KT 25/15 A2993 RMK A01 T02520154  RH  055%=      5-min Rain = 0
KLO1 130747Z 16011KT 25/15 A2993 RMK A01 T02510154  RH  055%=      5-min Rain = 0
KLO1 130748Z 16010KT 25/15 A2993 RMK A01 T02510154  RH  055%=      5-min Rain = 0
KLO1 130749Z 16010KT 25/15 A2993 RMK A01 T02510154  RH  055%=      5-min Rain = 0
KLO1 130750Z 16010KT 25/15 A2993 RMK A01 T02500154  RH  055%=      5-min Rain = 0
KLO1 130751Z 16010KT 25/15 A2993 RMK A01 T02500154  RH  055%=      5-min Rain = 0
KLO1 130752Z 16010KT 25/15 A2993 RMK A01 T02500154  RH  055%=      5-min Rain = 0
KLO1 130753Z 16009KT 25/15 A2993 RMK A01 T02500154  RH  055%=      5-min Rain = 0
KLO1 130754Z 16011KT 25/15 A2993 RMK A01 T02500154  RH  055%=      5-min Rain = 0
KLO1 130755Z 16011KT 25/15 A2993 RMK A01 T02500154  RH  055%=      5-min Rain = 0
KLO1 130756Z 16011KT 25/15 A2993 RMK A01 T02500154  RH  055%=      5-min Rain = 0
KLO1 130757Z 16011KT 25/15 A2993 RMK A01 T02500154  RH  055%=      5-min Rain = 0
KLO1 130758Z 16010KT 25/15 A2993 RMK A01 T02500154  RH  055%=      5-min Rain = 0
KLO1 130759Z 16010KT 25/15 A2993 RMK A01 T02490153  RH  055%=      5-min Rain = 0
KLO1 130800Z 16009KT 25/15 A2993 RMK A01 T02490154  RH  055%=      5-min Rain = 0
KLO1 130801Z 16010KT 25/15 A2993 RMK A01 T02490154  RH  055%=      5-min Rain = 0
KLO1 130802Z 16010KT 25/15 A2993 RMK A01 T02490154  RH  056%=      5-min Rain = 0
KLO1 130803Z 16009KT 25/15 A2993 RMK A01 T02490154  RH  056%=      5-min Rain = 0
KLO1 130804Z 16010KT 25/15 A2993 RMK A01 T02480153  RH  056%=      5-min Rain = 0
KLO1 130805Z 16008KT 25/15 A2993 RMK A01 T02480154  RH  056%=      5-min Rain = 0
KLO1 130806Z 16010KT 25/15 A2993 RMK A01 T02470153  RH  056%=      5-min Rain = 0
KLO1 130807Z 16011KT 25/15 A2993 RMK A01 T02470153  RH  056%=      5-min Rain = 0
KLO1 130808Z 16009KT 25/15 A2993 RMK A01 T02470153  RH  056%=      5-min Rain = 0
KLO1 130809Z 16009KT 25/15 A2993 RMK A01 T02470153  RH  056%=      5-min Rain = 0
KLO1 130810Z 16010KT 25/15 A2993 RMK A01 T02470153  RH  056%=      5-min Rain = 0
KLO1 130811Z 16010KT 25/15 A2993 RMK A01 T02470153  RH  056%=      5-min Rain = 0
KLO1 130812Z 16010KT 25/15 A2993 RMK A01 T02460153  RH  056%=      5-min Rain = 0
KLO1 130813Z 16011KT 25/15 A2993 RMK A01 T02460153  RH  056%=      5-min Rain = 0
KLO1 130814Z 16011KT 25/15 A2993 RMK A01 T02460153  RH  056%=      5-min Rain = 0
KLO1 130815Z 16009KT 25/15 A2993 RMK A01 T02460154  RH  056%=      5-min Rain = 0
KLO1 130816Z 16008KT 25/15 A2993 RMK A01 T02460153  RH  056%=      5-min Rain = 0
KLO1 130817Z 16010KT 25/15 A2993 RMK A01 T02450153  RH  056%=      5-min Rain = 0
KLO1 130818Z 16009KT 25/15 A2993 RMK A01 T02450153  RH  057%=      5-min Rain = 0
KLO1 130819Z 16009KT 25/15 A2993 RMK A01 T02450153  RH  057%=      5-min Rain = 0
KLO1 130820Z 16009KT 25/15 A2993 RMK A01 T02450154  RH  057%=      5-min Rain = 0
KLO1 130821Z 16008KT 24/15 A2993 RMK A01 T02440153  RH  057%=      5-min Rain = 0
KLO1 130822Z 16009KT 24/15 A2993 RMK A01 T02440153  RH  057%=      5-min Rain = 0
KLO1 130823Z 16008KT 24/15 A2993 RMK A01 T02430153  RH  057%=      5-min Rain = 0
KLO1 130824Z 16008KT 24/15 A2993 RMK A01 T02440153  RH  057%=      5-min Rain = 0
KLO1 130825Z 16009KT 24/15 A2993 RMK A01 T02430153  RH  057%=      5-min Rain = 0
KLO1 130826Z 16009KT 24/15 A2993 RMK A01 T02430153  RH  057%=      5-min Rain = 0
KLO1 130827Z 16011KT 24/15 A2993 RMK A01 T02430153  RH  057%=      5-min Rain = 0
KLO1 130828Z 16009KT 24/15 A2993 RMK A01 T02430154  RH  057%=      5-min Rain = 0
KLO1 130829Z 16009KT 24/15 A2993 RMK A01 T02440154  RH  057%=      5-min Rain = 0
KLO1 130830Z 16010KT 24/15 A2993 RMK A01 T02430153  RH  057%=      5-min Rain = 0
KLO1 130831Z 16009KT 24/15 A2993 RMK A01 T02430153  RH  057%=      5-min Rain = 0
KLO1 130832Z 16011KT 24/15 A2993 RMK A01 T02430154  RH  057%=      5-min Rain = 0
KLO1 130833Z 16010KT 24/15 A2993 RMK A01 T02430154  RH  057%=      5-min Rain = 0
KLO1 130834Z 16012KT 24/15 A2993 RMK A01 T02430154  RH  058%=      5-min Rain = 0
KLO1 130835Z 16011KT 24/15 A2993 RMK A01 T02430154  RH  058%=      5-min Rain = 0
KLO1 130836Z 16010KT 24/15 A2993 RMK A01 T02430154  RH  058%=      5-min Rain = 0
KLO1 130837Z 16009KT 24/15 A2993 RMK A01 T02430154  RH  058%=      5-min Rain = 0
KLO1 130838Z 16009KT 24/15 A2993 RMK A01 T02420154  RH  058%=      5-min Rain = 0
KLO1 130839Z 16010KT 24/15 A2993 RMK A01 T02420154  RH  058%=      5-min Rain = 0
KLO1 130840Z 16011KT 24/15 A2993 RMK A01 T02420154  RH  058%=      5-min Rain = 0
KLO1 130841Z 16010KT 24/15 A2993 RMK A01 T02420154  RH  058%=      5-min Rain = 0
KLO1 130842Z 16009KT 24/15 A2993 RMK A01 T02420154  RH  058%=      5-min Rain = 0
KLO1 130843Z 16010KT 24/15 A2993 RMK A01 T02420154  RH  058%=      5-min Rain = 0
KLO1 130844Z 16011KT 24/15 A2993 RMK A01 T02420154  RH  058%=      5-min Rain = 0
KLO1 130845Z 16011KT 24/15 A2993 RMK A01 T02420154  RH  058%=      5-min Rain = 0
KLO1 130846Z 16012KT 24/15 A2993 RMK A01 T02420154  RH  058%=      5-min Rain = 0
KLO1 130847Z 16011KT 24/15 A2993 RMK A01 T02420154  RH  058%=      5-min Rain = 0
KLO1 130848Z 16011KT 24/15 A2993 RMK A01 T02420154  RH  058%=      5-min Rain = 0
KLO1 130849Z 16011KT 24/15 A2993 RMK A01 T02420154  RH  058%=      5-min Rain = 0
KLO1 130850Z 16010KT 24/16 A2993 RMK A01 T02420155  RH  058%=      5-min Rain = 0
KLO1 130851Z 16010KT 24/15 A2993 RMK A01 T02420154  RH  058%=      5-min Rain = 0
KLO1 130852Z 16010KT 24/15 A2993 RMK A01 T02420154  RH  058%=      5-min Rain = 0
KLO1 130853Z 16010KT 24/15 A2993 RMK A01 T02410154  RH  058%=      5-min Rain = 0
KLO1 130854Z 16012KT 24/16 A2993 RMK A01 T02410155  RH  058%=      5-min Rain = 0
KLO1 130855Z 16010KT 24/16 A2993 RMK A01 T02410155  RH  058%=      5-min Rain = 0
KLO1 130856Z 16009KT 24/15 A2994 RMK A01 T02410154  RH  058%=      5-min Rain = 0
KLO1 130857Z 16009KT 24/15 A2994 RMK A01 T02400154  RH  059%=      5-min Rain = 0
KLO1 130858Z 16008KT 24/15 A2993 RMK A01 T02390154  RH  059%=      5-min Rain = 0
KLO1 130859Z 16009KT 24/15 A2994 RMK A01 T02390154  RH  059%=      5-min Rain = 0
KLO1 130900Z 16009KT 24/15 A2994 RMK A01 T02390154  RH  059%=      5-min Rain = 0
KLO1 130901Z 16009KT 24/15 A2994 RMK A01 T02380154  RH  059%=      5-min Rain = 0
KLO1 130902Z 16009KT 24/15 A2994 RMK A01 T02380154  RH  059%=      5-min Rain = 0
KLO1 130903Z 16008KT 24/15 A2994 RMK A01 T02380154  RH  059%=      5-min Rain = 0
KLO1 130904Z 17009KT 24/15 A2994 RMK A01 T02380154  RH  059%=      5-min Rain = 0
KLO1 130905Z 16008KT 24/16 A2994 RMK A01 T02380155  RH  059%=      5-min Rain = 0
KLO1 130906Z 16009KT 24/15 A2994 RMK A01 T02380154  RH  059%=      5-min Rain = 0
KLO1 130907Z 16009KT 24/15 A2994 RMK A01 T02370154  RH  060%=      5-min Rain = 0
KLO1 130908Z 16009KT 24/15 A2994 RMK A01 T02370154  RH  060%=      5-min Rain = 0
KLO1 130909Z 16009KT 24/15 A2994 RMK A01 T02370154  RH  060%=      5-min Rain = 0
KLO1 130910Z 16008KT 24/15 A2994 RMK A01 T02360154  RH  060%=      5-min Rain = 0
KLO1 130911Z 16008KT 24/15 A2994 RMK A01 T02360154  RH  060%=      5-min Rain = 0
KLO1 130912Z 16008KT 24/15 A2994 RMK A01 T02360154  RH  060%=      5-min Rain = 0
KLO1 130913Z 16010KT 24/15 A2994 RMK A01 T02350154  RH  060%=      5-min Rain = 0
KLO1 130914Z 16010KT 24/16 A2994 RMK A01 T02350155  RH  060%=      5-min Rain = 0
KLO1 130915Z 16009KT 24/16 A2994 RMK A01 T02360155  RH  060%=      5-min Rain = 0
KLO1 130916Z 16010KT 24/16 A2994 RMK A01 T02360155  RH  060%=      5-min Rain = 0
KLO1 130917Z 16009KT 24/16 A2994 RMK A01 T02360155  RH  060%=      5-min Rain = 0
KLO1 130918Z 16008KT 24/16 A2994 RMK A01 T02370155  RH  060%=      5-min Rain = 0
KLO1 130919Z 16008KT 24/16 A2994 RMK A01 T02370155  RH  060%=      5-min Rain = 0
KLO1 130920Z 16008KT 24/16 A2994 RMK A01 T02360155  RH  060%=      5-min Rain = 0
KLO1 130921Z 16008KT 24/16 A2994 RMK A01 T02350155  RH  061%=      5-min Rain = 0
KLO1 130922Z 16009KT 24/16 A2994 RMK A01 T02350155  RH  061%=      5-min Rain = 0
KLO1 130923Z 16009KT 24/16 A2994 RMK A01 T02350155  RH  061%=      5-min Rain = 0
KLO1 130924Z 16009KT 24/16 A2994 RMK A01 T02350155  RH  061%=      5-min Rain = 0
KLO1 130925Z 16009KT 24/16 A2994 RMK A01 T02350155  RH  061%=      5-min Rain = 0
KLO1 130926Z 16008KT 24/16 A2994 RMK A01 T02350155  RH  061%=      5-min Rain = 0
KLO1 130927Z 16008KT 24/16 A2994 RMK A01 T02350156  RH  061%=      5-min Rain = 0
KLO1 130928Z 16008KT 24/16 A2994 RMK A01 T02350156  RH  061%=      5-min Rain = 0
KLO1 130929Z 16009KT 24/16 A2994 RMK A01 T02350156  RH  061%=      5-min Rain = 0
KLO1 130930Z 16008KT 23/16 A2994 RMK A01 T02340156  RH  061%=      5-min Rain = 0
KLO1 130931Z 16008KT 23/16 A2994 RMK A01 T02340156  RH  061%=      5-min Rain = 0
KLO1 130932Z 17009KT 23/16 A2994 RMK A01 T02340156  RH  062%=      5-min Rain = 0
KLO1 130933Z 17008KT 23/16 A2995 RMK A01 T02340156  RH  062%=      5-min Rain = 0
KLO1 130934Z 17009KT 23/16 A2995 RMK A01 T02340156  RH  062%=      5-min Rain = 0
KLO1 130935Z 17008KT 23/16 A2995 RMK A01 T02330156  RH  062%=      5-min Rain = 0
KLO1 130936Z 17007KT 23/16 A2995 RMK A01 T02340156  RH  062%=      5-min Rain = 0
KLO1 130937Z 18007KT 23/16 A2995 RMK A01 T02330156  RH  062%=      5-min Rain = 0
KLO1 130938Z 18007KT 23/16 A2995 RMK A01 T02330156  RH  062%=      5-min Rain = 0
KLO1 130939Z 18007KT 23/16 A2995 RMK A01 T02330155  RH  062%=      5-min Rain = 0
KLO1 130940Z 18008KT 23/16 A2995 RMK A01 T02330155  RH  062%=      5-min Rain = 0
KLO1 130941Z 18008KT 23/16 A2995 RMK A01 T02330155  RH  062%=      5-min Rain = 0
KLO1 130942Z 18008KT 23/16 A2995 RMK A01 T02320155  RH  062%=      5-min Rain = 0
KLO1 130943Z 18008KT 23/16 A2995 RMK A01 T02330156  RH  062%=      5-min Rain = 0
KLO1 130944Z 17008KT 23/16 A2995 RMK A01 T02320156  RH  062%=      5-min Rain = 0
KLO1 130945Z 17008KT 23/16 A2995 RMK A01 T02320156  RH  062%=      5-min Rain = 0
KLO1 130946Z 17008KT 23/16 A2995 RMK A01 T02320156  RH  062%=      5-min Rain = 0
KLO1 130947Z 17008KT 23/16 A2995 RMK A01 T02320156  RH  062%=      5-min Rain = 0
KLO1 130948Z 17008KT 23/16 A2995 RMK A01 T02320155  RH  062%=      5-min Rain = 0
KLO1 130949Z 17009KT 23/16 A2995 RMK A01 T02310155  RH  062%=      5-min Rain = 0
KLO1 130950Z 17010KT 23/16 A2995 RMK A01 T02310155  RH  062%=      5-min Rain = 0
KLO1 130951Z 16010KT 23/16 A2995 RMK A01 T02310155  RH  062%=      5-min Rain = 0
KLO1 130952Z 17010KT 23/16 A2995 RMK A01 T02320156  RH  062%=      5-min Rain = 0
KLO1 130953Z 17010KT 23/16 A2995 RMK A01 T02320156  RH  062%=      5-min Rain = 0
KLO1 130954Z 17009KT 23/16 A2995 RMK A01 T02320156  RH  062%=      5-min Rain = 0
KLO1 130955Z 18010KT 23/16 A2995 RMK A01 T02320156  RH  062%=      5-min Rain = 0
KLO1 130956Z 17009KT 23/16 A2995 RMK A01 T02320156  RH  062%=      5-min Rain = 0
KLO1 130957Z 17010KT 23/16 A2995 RMK A01 T02320156  RH  062%=      5-min Rain = 0
KLO1 130958Z 17010KT 23/16 A2995 RMK A01 T02320157  RH  062%=      5-min Rain = 0
KLO1 130959Z 17010KT 23/16 A2995 RMK A01 T02320157  RH  062%=      5-min Rain = 0
KLO1 131000Z 17010KT 23/16 A2995 RMK A01 T02330157  RH  062%=      5-min Rain = 0
KLO1 131001Z 17010KT 23/16 A2995 RMK A01 T02330157  RH  063%=      5-min Rain = 0
KLO1 131002Z 17010KT 23/16 A2995 RMK A01 T02330158  RH  063%=      5-min Rain = 0
KLO1 131003Z 17010KT 23/16 A2995 RMK A01 T02330158  RH  063%=      5-min Rain = 0
KLO1 131004Z 17010KT 23/16 A2995 RMK A01 T02330158  RH  063%=      5-min Rain = 0
KLO1 131005Z 17011KT 23/16 A2995 RMK A01 T02330158  RH  063%=      5-min Rain = 0
KLO1 131006Z 17010KT 23/16 A2995 RMK A01 T02330159  RH  063%=      5-min Rain = 0
KLO1 131007Z 17013KT 23/16 A2995 RMK A01 T02340159  RH  063%=      5-min Rain = 0
KLO1 131008Z 17011KT 23/16 A2995 RMK A01 T02340160  RH  063%=      5-min Rain = 0
KLO1 131009Z 17011KT 23/16 A2995 RMK A01 T02340159  RH  063%=      5-min Rain = 0
KLO1 131010Z 17012KT 23/16 A2995 RMK A01 T02340160  RH  063%=      5-min Rain = 0
KLO1 131011Z 17011KT 24/16 A2995 RMK A01 T02350161  RH  063%=      5-min Rain = 0
KLO1 131012Z 17012KT 24/16 A2995 RMK A01 T02350161  RH  063%=      5-min Rain = 0
KLO1 131013Z 17011KT 23/16 A2995 RMK A01 T02340161  RH  063%=      5-min Rain = 0
KLO1 131014Z 16012KT 23/16 A2995 RMK A01 T02340162  RH  064%=      5-min Rain = 0
KLO1 131015Z 17011KT 24/16 A2995 RMK A01 T02350162  RH  064%=      5-min Rain = 0
KLO1 131016Z 17011KT 23/16 A2995 RMK A01 T02340161  RH  064%=      5-min Rain = 0
KLO1 131017Z 17013KT 24/16 A2995 RMK A01 T02350162  RH  064%=      5-min Rain = 0
KLO1 131018Z 17011KT 23/16 A2995 RMK A01 T02340163  RH  064%=      5-min Rain = 0
KLO1 131019Z 17011KT 23/16 A2995 RMK A01 T02340163  RH  064%=      5-min Rain = 0
KLO1 131020Z 17010KT 24/16 A2995 RMK A01 T02350163  RH  064%=      5-min Rain = 0
KLO1 131021Z 17010KT 24/16 A2995 RMK A01 T02350163  RH  064%=      5-min Rain = 0
KLO1 131022Z 18012KT 23/16 A2995 RMK A01 T02340163  RH  064%=      5-min Rain = 0
KLO1 131023Z 17011KT 23/16 A2995 RMK A01 T02340164  RH  065%=      5-min Rain = 0
KLO1 131024Z 17011KT 23/16 A2995 RMK A01 T02340164  RH  065%=      5-min Rain = 0
KLO1 131025Z 16011KT 23/16 A2995 RMK A01 T02340164  RH  065%=      5-min Rain = 0
KLO1 131026Z 16011KT 23/16 A2995 RMK A01 T02340164  RH  065%=      5-min Rain = 0
KLO1 131027Z 17010KT 23/16 A2995 RMK A01 T02340164  RH  065%=      5-min Rain = 0
KLO1 131028Z 16012KT 23/16 A2995 RMK A01 T02330164  RH  065%=      5-min Rain = 0
KLO1 131029Z 17010KT 23/17 A2995 RMK A01 T02340165  RH  065%=      5-min Rain = 0
KLO1 131030Z 17011KT 23/16 A2995 RMK A01 T02330164  RH  065%=      5-min Rain = 0
KLO1 131031Z 17010KT 23/17 A2995 RMK A01 T02330165  RH  066%=      5-min Rain = 0
KLO1 131032Z 17011KT 23/17 A2995 RMK A01 T02330165  RH  066%=      5-min Rain = 0
KLO1 131033Z 17009KT 23/17 A2995 RMK A01 T02320165  RH  066%=      5-min Rain = 0
KLO1 131034Z 16009KT 23/17 A2995 RMK A01 T02330165  RH  066%=      5-min Rain = 0
KLO1 131035Z 16010KT 23/17 A2995 RMK A01 T02320165  RH  066%=      5-min Rain = 0
KLO1 131036Z 15010KT 23/17 A2995 RMK A01 T02320165  RH  066%=      5-min Rain = 0
KLO1 131037Z 15010KT 23/17 A2995 RMK A01 T02320165  RH  066%=      5-min Rain = 0
KLO1 131038Z 16010KT 23/17 A2995 RMK A01 T02310166  RH  066%=      5-min Rain = 0
KLO1 131039Z 16009KT 23/17 A2995 RMK A01 T02310166  RH  067%=      5-min Rain = 0
KLO1 131040Z 17010KT 23/17 A2995 RMK A01 T02310166  RH  067%=      5-min Rain = 0
KLO1 131041Z 17009KT 23/17 A2995 RMK A01 T02310166  RH  067%=      5-min Rain = 0
KLO1 131042Z 16009KT 23/17 A2995 RMK A01 T02310166  RH  067%=      5-min Rain = 0
KLO1 131043Z 16009KT 23/17 A2995 RMK A01 T02300166  RH  067%=      5-min Rain = 0
KLO1 131044Z 16009KT 23/17 A2995 RMK A01 T02300166  RH  067%=      5-min Rain = 0
KLO1 131045Z 16010KT 23/17 A2995 RMK A01 T02290166  RH  067%=      5-min Rain = 0
KLO1 131046Z 15011KT 23/17 A2995 RMK A01 T02290166  RH  068%=      5-min Rain = 0
KLO1 131047Z 16010KT 23/17 A2995 RMK A01 T02290167  RH  068%=      5-min Rain = 0
KLO1 131048Z 15010KT 23/17 A2995 RMK A01 T02300167  RH  068%=      5-min Rain = 0
KLO1 131049Z 16010KT 23/17 A2995 RMK A01 T02300167  RH  068%=      5-min Rain = 0
KLO1 131050Z 16009KT 23/17 A2995 RMK A01 T02290167  RH  068%=      5-min Rain = 0
KLO1 131051Z 15009KT 23/17 A2995 RMK A01 T02290167  RH  068%=      5-min Rain = 0
KLO1 131052Z 16010KT 23/17 A2995 RMK A01 T02290167  RH  068%=      5-min Rain = 0
KLO1 131053Z 15011KT 23/17 A2995 RMK A01 T02280167  RH  068%=      5-min Rain = 0
KLO1 131054Z 16011KT 23/17 A2995 RMK A01 T02290167  RH  068%=      5-min Rain = 0
KLO1 131055Z 16010KT 23/17 A2995 RMK A01 T02290168  RH  068%=      5-min Rain = 0
KLO1 131056Z 17009KT 23/17 A2995 RMK A01 T02290168  RH  068%=      5-min Rain = 0
KLO1 131057Z 16010KT 23/17 A2995 RMK A01 T02280168  RH  069%=      5-min Rain = 0
KLO1 131058Z 16010KT 23/17 A2995 RMK A01 T02290168  RH  069%=      5-min Rain = 0
KLO1 131059Z 15011KT 23/17 A2995 RMK A01 T02290169  RH  069%=      5-min Rain = 0
KLO1 131100Z 16010KT 23/17 A2995 RMK A01 T02280169  RH  069%=      5-min Rain = 0
KLO1 131101Z 16011KT 23/17 A2995 RMK A01 T02280169  RH  069%=      5-min Rain = 0
KLO1 131102Z 16010KT 23/17 A2995 RMK A01 T02280169  RH  069%=      5-min Rain = 0
KLO1 131103Z 16011KT 23/17 A2995 RMK A01 T02280169  RH  070%=      5-min Rain = 0
KLO1 131104Z 16011KT 23/17 A2995 RMK A01 T02280170  RH  070%=      5-min Rain = 0
KLO1 131105Z 16011KT 23/17 A2995 RMK A01 T02280170  RH  070%=      5-min Rain = 0
KLO1 131106Z 16011KT 23/17 A2995 RMK A01 T02280171  RH  070%=      5-min Rain = 0
KLO1 131107Z 16010KT 23/17 A2995 RMK A01 T02280171  RH  070%=      5-min Rain = 0
KLO1 131108Z 16009KT 23/17 A2995 RMK A01 T02280171  RH  070%=      5-min Rain = 0
KLO1 131109Z 16009KT 23/17 A2995 RMK A01 T02270171  RH  070%=      5-min Rain = 0
KLO1 131110Z 16010KT 23/17 A2995 RMK A01 T02270171  RH  071%=      5-min Rain = 0
KLO1 131111Z 16009KT 23/17 A2995 RMK A01 T02270171  RH  071%=      5-min Rain = 0
KLO1 131112Z 16008KT 23/17 A2995 RMK A01 T02270171  RH  071%=      5-min Rain = 0
KLO1 131113Z 16010KT 23/17 A2995 RMK A01 T02270172  RH  071%=      5-min Rain = 0
KLO1 131114Z 16009KT 23/17 A2995 RMK A01 T02260172  RH  071%=      5-min Rain = 0
KLO1 131115Z 16009KT 23/17 A2995 RMK A01 T02260172  RH  071%=      5-min Rain = 0
KLO1 131116Z 16010KT 23/17 A2995 RMK A01 T02260172  RH  072%=      5-min Rain = 0
KLO1 131117Z 16010KT 23/17 A2995 RMK A01 T02260172  RH  072%=      5-min Rain = 0
KLO1 131118Z 16008KT 23/17 A2995 RMK A01 T02260172  RH  072%=      5-min Rain = 0
KLO1 131119Z 16009KT 23/17 A2995 RMK A01 T02260172  RH  072%=      5-min Rain = 0
KLO1 131120Z 16008KT 23/17 A2995 RMK A01 T02260172  RH  072%=      5-min Rain = 0
KLO1 131121Z 16008KT 23/17 A2995 RMK A01 T02250172  RH  072%=      5-min Rain = 0
KLO1 131122Z 16009KT 23/17 A2995 RMK A01 T02250173  RH  072%=      5-min Rain = 0
KLO1 131123Z 16010KT 23/17 A2995 RMK A01 T02250173  RH  072%=      5-min Rain = 0
KLO1 131124Z 16010KT 23/17 A2995 RMK A01 T02250173  RH  072%=      5-min Rain = 0
KLO1 131125Z 16010KT 23/17 A2995 RMK A01 T02250173  RH  072%=      5-min Rain = 0
KLO1 131126Z 16009KT 23/17 A2995 RMK A01 T02250173  RH  073%=      5-min Rain = 0
KLO1 131127Z 16008KT 23/17 A2995 RMK A01 T02250173  RH  072%=      5-min Rain = 0
KLO1 131128Z 16009KT 23/17 A2995 RMK A01 T02250173  RH  072%=      5-min Rain = 0
KLO1 131129Z 16009KT 23/17 A2995 RMK A01 T02250173  RH  073%=      5-min Rain = 0
KLO1 131130Z 16008KT 22/17 A2995 RMK A01 T02240173  RH  073%=      5-min Rain = 0
KLO1 131131Z 16009KT 22/17 A2995 RMK A01 T02240174  RH  073%=      5-min Rain = 0
KLO1 131132Z 16009KT 22/17 A2995 RMK A01 T02240174  RH  073%=      5-min Rain = 0
KLO1 131133Z 16009KT 22/17 A2995 RMK A01 T02240174  RH  073%=      5-min Rain = 0
KLO1 131134Z 16009KT 22/17 A2995 RMK A01 T02240174  RH  073%=      5-min Rain = 0
KLO1 131135Z 17009KT 22/17 A2995 RMK A01 T02240174  RH  074%=      5-min Rain = 0
KLO1 131136Z 16009KT 22/17 A2995 RMK A01 T02230174  RH  074%=      5-min Rain = 0
KLO1 131137Z 16010KT 22/18 A2995 RMK A01 T02230175  RH  074%=      5-min Rain = 0
KLO1 131138Z 16010KT 22/18 A2995 RMK A01 T02230175  RH  074%=      5-min Rain = 0
KLO1 131139Z 16011KT 22/18 A2995 RMK A01 T02230175  RH  074%=      5-min Rain = 0
KLO1 131140Z 17009KT 22/18 A2995 RMK A01 T02240176  RH  074%=      5-min Rain = 0
KLO1 131141Z 16010KT 22/18 A2995 RMK A01 T02240176  RH  074%=      5-min Rain = 0
KLO1 131142Z 16010KT 22/18 A2995 RMK A01 T02240177  RH  075%=      5-min Rain = 0
KLO1 131143Z 16010KT 22/18 A2995 RMK A01 T02240177  RH  075%=      5-min Rain = 0
KLO1 131144Z 16010KT 22/18 A2995 RMK A01 T02240177  RH  075%=      5-min Rain = 0
KLO1 131145Z 17010KT 22/18 A2995 RMK A01 T02240178  RH  075%=      5-min Rain = 0
KLO1 131146Z 17009KT 22/18 A2995 RMK A01 T02240178  RH  075%=      5-min Rain = 0
KLO1 131147Z 17011KT 22/18 A2995 RMK A01 T02240178  RH  075%=      5-min Rain = 0
KLO1 131148Z 16010KT 22/18 A2995 RMK A01 T02240179  RH  076%=      5-min Rain = 0
KLO1 131149Z 16010KT 22/18 A2995 RMK A01 T02240179  RH  076%=      5-min Rain = 0
KLO1 131150Z 16010KT 22/18 A2995 RMK A01 T02240179  RH  076%=      5-min Rain = 0
KLO1 131151Z 16011KT 22/18 A2995 RMK A01 T02240180  RH  076%=      5-min Rain = 0
KLO1 131152Z 17010KT 22/18 A2995 RMK A01 T02240180  RH  076%=      5-min Rain = 0
KLO1 131153Z 17010KT 22/18 A2995 RMK A01 T02240180  RH  076%=      5-min Rain = 0
KLO1 131154Z 16010KT 22/18 A2995 RMK A01 T02240180  RH  076%=      5-min Rain = 0
KLO1 131155Z 17010KT 22/18 A2995 RMK A01 T02240180  RH  076%=      5-min Rain = 0
KLO1 131156Z 17011KT 22/18 A2995 RMK A01 T02240181  RH  077%=      5-min Rain = 0
KLO1 131157Z 17013KT 22/18 A2995 RMK A01 T02240182  RH  077%=      5-min Rain = 0
KLO1 131158Z 17012KT 22/18 A2995 RMK A01 T02240182  RH  077%=      5-min Rain = 0
KLO1 131159Z 17010KT 23/18 A2995 RMK A01 T02250182  RH  077%=      5-min Rain = 0
KLO1 131200Z 17011KT 23/18 A2995 RMK A01 T02250182  RH  077%=      5-min Rain = 0
KLO1 131201Z 17011KT 22/18 A2995 RMK A01 T02240183  RH  077%=      5-min Rain = 0
KLO1 131202Z 17010KT 22/18 A2995 RMK A01 T02240183  RH  077%=      5-min Rain = 0
KLO1 131203Z 17010KT 22/18 A2995 RMK A01 T02240183  RH  077%=      5-min Rain = 0
KLO1 131204Z 17011KT 23/18 A2995 RMK A01 T02250183  RH  077%=      5-min Rain = 0
KLO1 131205Z 17011KT 23/18 A2995 RMK A01 T02250183  RH  078%=      5-min Rain = 0
KLO1 131206Z 17011KT 22/18 A2995 RMK A01 T02240184  RH  078%=      5-min Rain = 0
KLO1 131207Z 17011KT 22/18 A2995 RMK A01 T02240184  RH  078%=      5-min Rain = 0
KLO1 131208Z 17011KT 23/18 A2996 RMK A01 T02250184  RH  078%=      5-min Rain = 0
KLO1 131209Z 17012KT 23/18 A2996 RMK A01 T02250184  RH  078%=      5-min Rain = 0
KLO1 131210Z 17012KT 23/18 A2996 RMK A01 T02250184  RH  078%=      5-min Rain = 0
KLO1 131211Z 17010KT 23/19 A2996 RMK A01 T02250185  RH  078%=      5-min Rain = 0
KLO1 131212Z 17010KT 23/18 A2996 RMK A01 T02250184  RH  078%=      5-min Rain = 0
KLO1 131213Z 17010KT 23/18 A2996 RMK A01 T02250184  RH  078%=      5-min Rain = 0
KLO1 131214Z 17009KT 23/19 A2996 RMK A01 T02250185  RH  078%=      5-min Rain = 0
KLO1 131215Z 17009KT 23/18 A2996 RMK A01 T02250184  RH  078%=      5-min Rain = 0
KLO1 131216Z 17009KT 23/18 A2996 RMK A01 T02250184  RH  078%=      5-min Rain = 0
KLO1 131217Z 17011KT 23/18 A2996 RMK A01 T02250184  RH  078%=      5-min Rain = 0
KLO1 131218Z 17009KT 23/19 A2996 RMK A01 T02260185  RH  078%=      5-min Rain = 0
KLO1 131219Z 17009KT 23/19 A2996 RMK A01 T02260185  RH  078%=      5-min Rain = 0
KLO1 131220Z 17009KT 23/19 A2996 RMK A01 T02260185  RH  077%=      5-min Rain = 0
KLO1 131221Z 17010KT 23/19 A2996 RMK A01 T02270185  RH  077%=      5-min Rain = 0
KLO1 131222Z 16009KT 23/19 A2996 RMK A01 T02270185  RH  077%=      5-min Rain = 0
KLO1 131223Z 17010KT 23/19 A2996 RMK A01 T02270185  RH  077%=      5-min Rain = 0
KLO1 131224Z 17011KT 23/19 A2996 RMK A01 T02280185  RH  077%=      5-min Rain = 0
KLO1 131225Z 17011KT 23/19 A2996 RMK A01 T02280186  RH  077%=      5-min Rain = 0
KLO1 131226Z 17011KT 23/19 A2996 RMK A01 T02280186  RH  077%=      5-min Rain = 0
KLO1 131227Z 17011KT 23/19 A2996 RMK A01 T02280186  RH  077%=      5-min Rain = 0
KLO1 131228Z 17009KT 23/19 A2997 RMK A01 T02290186  RH  077%=      5-min Rain = 0
KLO1 131229Z 17011KT 23/19 A2997 RMK A01 T02290186  RH  077%=      5-min Rain = 0
KLO1 131230Z 17011KT 23/19 A2997 RMK A01 T02290186  RH  076%=      5-min Rain = 0
KLO1 131231Z 17011KT 23/19 A2997 RMK A01 T02300186  RH  076%=      5-min Rain = 0
KLO1 131232Z 17012KT 23/19 A2997 RMK A01 T02300186  RH  076%=      5-min Rain = 0
KLO1 131233Z 17013KT 23/19 A2997 RMK A01 T02300186  RH  076%=      5-min Rain = 0
KLO1 131234Z 17010KT 23/19 A2997 RMK A01 T02310186  RH  076%=      5-min Rain = 0
KLO1 131235Z 17011KT 23/19 A2997 RMK A01 T02310186  RH  076%=      5-min Rain = 0
KLO1 131236Z 17009KT 23/19 A2997 RMK A01 T02310186  RH  076%=      5-min Rain = 0
KLO1 131237Z 17008KT 23/19 A2997 RMK A01 T02320187  RH  076%=      5-min Rain = 0
KLO1 131238Z 17010KT 23/19 A2997 RMK A01 T02320186  RH  076%=      5-min Rain = 0
KLO1 131239Z 17009KT 23/19 A2997 RMK A01 T02320187  RH  076%=      5-min Rain = 0
KLO1 131240Z 17009KT 23/19 A2997 RMK A01 T02320187  RH  075%=      5-min Rain = 0
KLO1 131241Z 18010KT 23/19 A2997 RMK A01 T02320187  RH  075%=      5-min Rain = 0
KLO1 131242Z 18009KT 23/19 A2997 RMK A01 T02330187  RH  075%=      5-min Rain = 0
KLO1 131243Z 17008KT 23/19 A2997 RMK A01 T02330187  RH  075%=      5-min Rain = 0
KLO1 131244Z 17009KT 23/19 A2997 RMK A01 T02330187  RH  075%=      5-min Rain = 0
KLO1 131245Z 18013KT 23/19 A2997 RMK A01 T02330187  RH  075%=      5-min Rain = 0
KLO1 131246Z 18011KT 23/19 A2997 RMK A01 T02340187  RH  075%=      5-min Rain = 0
KLO1 131247Z 18010KT 23/19 A2998 RMK A01 T02340187  RH  075%=      5-min Rain = 0
KLO1 131248Z 17008KT 23/19 A2998 RMK A01 T02340187  RH  075%=      5-min Rain = 0
KLO1 131249Z 18011KT 23/19 A2998 RMK A01 T02340188  RH  075%=      5-min Rain = 0
KLO1 131250Z 18009KT 24/19 A2998 RMK A01 T02350188  RH  075%=      5-min Rain = 0
KLO1 131251Z 17011KT 24/19 A2998 RMK A01 T02350188  RH  075%=      5-min Rain = 0
KLO1 131252Z 17011KT 24/19 A2998 RMK A01 T02350188  RH  075%=      5-min Rain = 0
KLO1 131253Z 17010KT 24/19 A2998 RMK A01 T02350188  RH  075%=      5-min Rain = 0
KLO1 131254Z 18011KT 24/19 A2998 RMK A01 T02350188  RH  075%=      5-min Rain = 0
KLO1 131255Z 18012KT 24/19 A2998 RMK A01 T02360188  RH  074%=      5-min Rain = 0
KLO1 131256Z 18013KT 24/19 A2998 RMK A01 T02360188  RH  074%=      5-min Rain = 0
KLO1 131257Z 18012KT 24/19 A2998 RMK A01 T02360188  RH  074%=      5-min Rain = 0
KLO1 131258Z 18013KT 24/19 A2998 RMK A01 T02360187  RH  074%=      5-min Rain = 0
KLO1 131259Z 18011KT 24/19 A2998 RMK A01 T02370187  RH  074%=      5-min Rain = 0
KLO1 131300Z 17012KT 24/19 A2998 RMK A01 T02370187  RH  074%=      5-min Rain = 0
KLO1 131301Z 18014KT 24/19 A2998 RMK A01 T02370187  RH  073%=      5-min Rain = 0
KLO1 131302Z 17014G19KT 24/19 A2998 RMK A01 T02370187  RH  073%=      5-min Rain = 0
KLO1 131303Z 19013KT 24/19 A2998 RMK A01 T02370187  RH  074%=      5-min Rain = 0
KLO1 131304Z 18015KT 24/19 A2998 RMK A01 T02370187  RH  074%=      5-min Rain = 0
KLO1 131305Z 18015KT 24/19 A2998 RMK A01 T02370186  RH  073%=      5-min Rain = 0
KLO1 131306Z 18014KT 24/19 A2998 RMK A01 T02370186  RH  073%=      5-min Rain = 0
KLO1 131307Z 18014G20KT 24/19 A2999 RMK A01 T02370186  RH  073%=      5-min Rain = 0
KLO1 131308Z 18017KT 24/19 A2998 RMK A01 T02380186  RH  073%=      5-min Rain = 0
KLO1 131309Z 19018KT 24/19 A2998 RMK A01 T02380186  RH  073%=      5-min Rain = 0
KLO1 131310Z 18018KT 24/19 A2998 RMK A01 T02380186  RH  072%=      5-min Rain = 0
KLO1 131311Z 18016KT 24/19 A2998 RMK A01 T02380186  RH  072%=      5-min Rain = 0
KLO1 131312Z 18013G18KT 24/19 A2999 RMK A01 T02380186  RH  072%=      5-min Rain = 0
KLO1 131313Z 18017KT 24/19 A2999 RMK A01 T02390186  RH  072%=      5-min Rain = 0
KLO1 131314Z 18019KT 24/19 A2998 RMK A01 T02390185  RH  072%=      5-min Rain = 0
KLO1 131315Z 18019KT 24/19 A2999 RMK A01 T02390185  RH  072%=      5-min Rain = 0
KLO1 131316Z 18016KT 24/19 A2999 RMK A01 T02390185  RH  072%=      5-min Rain = 0
KLO1 131317Z 18017KT 24/19 A2999 RMK A01 T02390185  RH  072%=      5-min Rain = 0
KLO1 131318Z 18017KT 24/19 A2999 RMK A01 T02400185  RH  071%=      5-min Rain = 0
KLO1 131319Z 19016KT 24/19 A2999 RMK A01 T02400185  RH  071%=      5-min Rain = 0
KLO1 131320Z 19016KT 24/19 A2999 RMK A01 T02410185  RH  071%=      5-min Rain = 0
KLO1 131321Z 19016KT 24/19 A2999 RMK A01 T02410185  RH  071%=      5-min Rain = 0
KLO1 131322Z 18013KT 24/19 A2999 RMK A01 T02410185  RH  071%=      5-min Rain = 0
KLO1 131323Z 18015KT 24/19 A2999 RMK A01 T02420186  RH  071%=      5-min Rain = 0
KLO1 131324Z 18013G20KT 24/19 A2999 RMK A01 T02420186  RH  071%=      5-min Rain = 0
KLO1 131325Z 18018G23KT 24/19 A2999 RMK A01 T02430186  RH  070%=      5-min Rain = 0
KLO1 131326Z 18015G22KT 24/19 A2999 RMK A01 T02430185  RH  070%=      5-min Rain = 0
KLO1 131327Z 17018KT 24/19 A2999 RMK A01 T02430185  RH  070%=      5-min Rain = 0
KLO1 131328Z 18018KT 24/19 A2999 RMK A01 T02430185  RH  070%=      5-min Rain = 0
KLO1 131329Z 17018KT 24/18 A2999 RMK A01 T02430184  RH  070%=      5-min Rain = 0
KLO1 131330Z 18017KT 24/19 A2999 RMK A01 T02430185  RH  070%=      5-min Rain = 0
KLO1 131331Z 18018KT 24/19 A2999 RMK A01 T02430185  RH  070%=      5-min Rain = 0
KLO1 131332Z 18015KT 24/19 A2999 RMK A01 T02430185  RH  070%=      5-min Rain = 0
KLO1 131333Z 18018KT 24/19 A2999 RMK A01 T02430185  RH  070%=      5-min Rain = 0
KLO1 131334Z 18018KT 24/18 A2999 RMK A01 T02430184  RH  070%=      5-min Rain = 0
KLO1 131335Z 18017KT 24/18 A2999 RMK A01 T02430184  RH  070%=      5-min Rain = 0
KLO1 131336Z 17017KT 24/18 A2999 RMK A01 T02430184  RH  070%=      5-min Rain = 0
KLO1 131337Z 18017KT 24/18 A2999 RMK A01 T02430184  RH  069%=      5-min Rain = 0
KLO1 131338Z 18016KT 24/18 A2999 RMK A01 T02430184  RH  069%=      5-min Rain = 0
KLO1 131339Z 18015G20KT 24/18 A2999 RMK A01 T02440184  RH  069%=      5-min Rain = 0
KLO1 131340Z 18017KT 24/18 A2999 RMK A01 T02440184  RH  069%=      5-min Rain = 0
KLO1 131341Z 18018KT 24/18 A2999 RMK A01 T02440184  RH  069%=      5-min Rain = 0
KLO1 131342Z 18018KT 24/18 A2999 RMK A01 T02440184  RH  069%=      5-min Rain = 0
KLO1 131343Z 18015KT 24/18 A2999 RMK A01 T02440184  RH  069%=      5-min Rain = 0
KLO1 131344Z 18017KT 24/18 A2999 RMK A01 T02440184  RH  069%=      5-min Rain = 0
KLO1 131345Z 18016KT 25/18 A2999 RMK A01 T02460184  RH  069%=      5-min Rain = 0
KLO1 131346Z 18016KT 25/18 A2999 RMK A01 T02460184  RH  068%=      5-min Rain = 0
KLO1 131347Z 18017KT 25/18 A2999 RMK A01 T02460184  RH  068%=      5-min Rain = 0
KLO1 131348Z 18015KT 25/18 A2999 RMK A01 T02460184  RH  068%=      5-min Rain = 0
KLO1 131349Z 19018KT 25/18 A2999 RMK A01 T02460184  RH  068%=      5-min Rain = 0
KLO1 131350Z 19018KT 25/18 A2999 RMK A01 T02460183  RH  068%=      5-min Rain = 0
KLO1 131351Z 19016KT 25/18 A2999 RMK A01 T02460184  RH  068%=      5-min Rain = 0
KLO1 131352Z 19016KT 25/18 A2999 RMK A01 T02460184  RH  068%=      5-min Rain = 0
KLO1 131353Z 18016KT 25/18 A30 RMK A01 T02460184  RH  068%=      5-min Rain = 0
KLO1 131354Z 18015KT 25/18 A30 RMK A01 T02470184  RH  068%=      5-min Rain = 0
KLO1 131355Z 19016KT 25/18 A2999 RMK A01 T02470184  RH  068%=      5-min Rain = 0
KLO1 131356Z 19015KT 25/18 A2999 RMK A01 T02470184  RH  068%=      5-min Rain = 0
KLO1 131357Z 19014KT 25/18 A2999 RMK A01 T02480184  RH  068%=      5-min Rain = 0
KLO1 131358Z 19015KT 25/18 A2999 RMK A01 T02490184  RH  067%=      5-min Rain = 0
KLO1 131359Z 19016KT 25/18 A2999 RMK A01 T02490184  RH  067%=      5-min Rain = 0
KLO1 131400Z 18013KT 25/19 A2999 RMK A01 T02490185  RH  067%=      5-min Rain = 0
KLO1 131401Z 17016KT 25/18 A2999 RMK A01 T02500184  RH  067%=      5-min Rain = 0
KLO1 131402Z 17014KT 25/19 A2999 RMK A01 T02500185  RH  067%=      5-min Rain = 0
KLO1 131403Z 18014KT 25/18 A2999 RMK A01 T02510184  RH  066%=      5-min Rain = 0
KLO1 131404Z 18016KT 25/18 A2999 RMK A01 T02510184  RH  066%=      5-min Rain = 0
KLO1 131405Z 18016KT 25/18 A2999 RMK A01 T02510184  RH  066%=      5-min Rain = 0
KLO1 131406Z 19017KT 25/18 A2999 RMK A01 T02500184  RH  066%=      5-min Rain = 0
KLO1 131407Z 18015KT 25/18 A2999 RMK A01 T02500183  RH  067%=      5-min Rain = 0
KLO1 131408Z 17013KT 25/18 A2999 RMK A01 T02500184  RH  067%=      5-min Rain = 0
KLO1 131409Z 17012KT 25/18 A2999 RMK A01 T02500184  RH  067%=      5-min Rain = 0
KLO1 131410Z 18017KT 25/18 A2999 RMK A01 T02510184  RH  066%=      5-min Rain = 0
KLO1 131411Z 17014KT 25/18 A2999 RMK A01 T02500184  RH  067%=      5-min Rain = 0
KLO1 131412Z 17014KT 25/19 A2999 RMK A01 T02510185  RH  067%=      5-min Rain = 0
KLO1 131413Z 17015KT 25/18 A2999 RMK A01 T02520184  RH  066%=      5-min Rain = 0
KLO1 131414Z 17018G23KT 25/18 A2999 RMK A01 T02520184  RH  066%=      5-min Rain = 0
KLO1 131415Z 18018KT 25/18 A2999 RMK A01 T02520183  RH  066%=      5-min Rain = 0
KLO1 131416Z 18016KT 25/18 A30 RMK A01 T02510183  RH  066%=      5-min Rain = 0
KLO1 131417Z 18016KT 25/18 A30 RMK A01 T02500183  RH  066%=      5-min Rain = 0
KLO1 131418Z 18017KT 25/18 A30 RMK A01 T02510184  RH  066%=      5-min Rain = 0
KLO1 131419Z 18016KT 25/18 A30 RMK A01 T02510184  RH  066%=      5-min Rain = 0
KLO1 131420Z 18017KT 25/18 A30 RMK A01 T02510183  RH  066%=      5-min Rain = 0
KLO1 131421Z 18018KT 25/18 A30 RMK A01 T02510183  RH  066%=      5-min Rain = 0
KLO1 131422Z 17016KT 25/18 A30 RMK A01 T02510183  RH  066%=      5-min Rain = 0
KLO1 131423Z 17014KT 25/18 A30 RMK A01 T02510183  RH  066%=      5-min Rain = 0
KLO1 131424Z 17015KT 25/18 A30 RMK A01 T02500183  RH  066%=      5-min Rain = 0
KLO1 131425Z 17014KT 25/18 A30 RMK A01 T02510183  RH  066%=      5-min Rain = 0
KLO1 131426Z 17016KT 25/18 A30 RMK A01 T02520183  RH  066%=      5-min Rain = 0
KLO1 131427Z 17016KT 25/18 A30 RMK A01 T02520183  RH  065%=      5-min Rain = 0
KLO1 131428Z 18015KT 25/18 A30 RMK A01 T02530183  RH  065%=      5-min Rain = 0
KLO1 131429Z 18016KT 25/18 A30 RMK A01 T02540183  RH  065%=      5-min Rain = 0
KLO1 131430Z 19017KT 25/18 A30 RMK A01 T02530182  RH  065%=      5-min Rain = 0
KLO1 131431Z 18017KT 25/18 A30 RMK A01 T02530182  RH  065%=      5-min Rain = 0
KLO1 131432Z 18015KT 25/18 A30 RMK A01 T02530182  RH  065%=      5-min Rain = 0
KLO1 131433Z 18020KT 25/18 A30 RMK A01 T02540182  RH  064%=      5-min Rain = 0
KLO1 131434Z 17018KT 25/18 A30 RMK A01 T02530181  RH  064%=      5-min Rain = 0
KLO1 131435Z 18017KT 25/18 A30 RMK A01 T02530182  RH  065%=      5-min Rain = 0
KLO1 131436Z 18016KT 25/18 A30 RMK A01 T02520182  RH  065%=      5-min Rain = 0
KLO1 131437Z 18016KT 25/18 A30 RMK A01 T02530182  RH  065%=      5-min Rain = 0
KLO1 131438Z 17015KT 25/18 A30 RMK A01 T02540182  RH  064%=      5-min Rain = 0
KLO1 131439Z 17017KT 25/18 A30 RMK A01 T02540182  RH  064%=      5-min Rain = 0
KLO1 131440Z 17018KT 25/18 A30 RMK A01 T02540182  RH  064%=      5-min Rain = 0
KLO1 131441Z 17016G21KT 25/18 A30 RMK A01 T02530181  RH  064%=      5-min Rain = 0
KLO1 131442Z 17018KT 25/18 A30 RMK A01 T02540182  RH  064%=      5-min Rain = 0
KLO1 131443Z 18018KT 25/18 A30 RMK A01 T02540181  RH  064%=      5-min Rain = 0
KLO1 131444Z 18014KT 25/18 A30 RMK A01 T02530181  RH  064%=      5-min Rain = 0
KLO1 131445Z 17015KT 25/18 A30 RMK A01 T02530181  RH  065%=      5-min Rain = 0
KLO1 131446Z 18014KT 25/18 A30 RMK A01 T02530182  RH  065%=      5-min Rain = 0
KLO1 131447Z 17016KT 25/18 A30 RMK A01 T02530181  RH  064%=      5-min Rain = 0
KLO1 131448Z 18015KT 25/18 A30 RMK A01 T02540182  RH  064%=      5-min Rain = 0
KLO1 131449Z 18015KT 25/18 A30 RMK A01 T02540182  RH  064%=      5-min Rain = 0
KLO1 131450Z 18016KT 25/18 A30 RMK A01 T02540182  RH  064%=      5-min Rain = 0
KLO1 131451Z 18015KT 26/18 A3001 RMK A01 T02550181  RH  064%=      5-min Rain = 0
KLO1 131452Z 18016KT 26/18 A3001 RMK A01 T02550181  RH  064%=      5-min Rain = 0
KLO1 131453Z 18015KT 26/18 A30 RMK A01 T02550181  RH  064%=      5-min Rain = 0
KLO1 131454Z 17015KT 26/18 A30 RMK A01 T02560182  RH  064%=      5-min Rain = 0
KLO1 131455Z 18015KT 26/18 A30 RMK A01 T02580182  RH  063%=      5-min Rain = 0
KLO1 131456Z 17020G25KT 26/18 A30 RMK A01 T02600181  RH  062%=      5-min Rain = 0
KLO1 131457Z 18020KT 26/18 A30 RMK A01 T02610180  RH  061%=      5-min Rain = 0
KLO1 131458Z 19019KT 26/18 A30 RMK A01 T02620180  RH  061%=      5-min Rain = 0
KLO1 131459Z 18018KT 26/18 A3001 RMK A01 T02610180  RH  061%=      5-min Rain = 0
KLO1 131500Z 18018KT 26/18 A30 RMK A01 T02610180  RH  061%=      5-min Rain = 0
KLO1 131501Z 18015KT 26/18 A30 RMK A01 T02610181  RH  061%=      5-min Rain = 0
KLO1 131502Z 18016KT 26/18 A30 RMK A01 T02640181  RH  061%=      5-min Rain = 0
KLO1 131503Z 18019KT 27/18 A30 RMK A01 T02650181  RH  060%=      5-min Rain = 0
KLO1 131504Z 19017KT 27/18 A3001 RMK A01 T02660180  RH  059%=      5-min Rain = 0
KLO1 131505Z 18016KT 27/18 A3001 RMK A01 T02650180  RH  060%=      5-min Rain = 0
KLO1 131506Z 18016KT 27/18 A3001 RMK A01 T02650180  RH  059%=      5-min Rain = 0
KLO1 131507Z 17016KT 27/18 A3001 RMK A01 T02650180  RH  059%=      5-min Rain = 0
KLO1 131508Z 18016KT 27/18 A3001 RMK A01 T02650180  RH  060%=      5-min Rain = 0
KLO1 131509Z 19015KT 27/18 A3001 RMK A01 T02650180  RH  060%=      5-min Rain = 0
KLO1 131510Z 19011KT 27/18 A3001 RMK A01 T02650179  RH  059%=      5-min Rain = 0
KLO1 131511Z 19014KT 27/18 A3001 RMK A01 T02650179  RH  059%=      5-min Rain = 0
KLO1 131512Z 19016KT 27/18 A30 RMK A01 T02650179  RH  059%=      5-min Rain = 0
KLO1 131513Z 20017KT 26/18 A30 RMK A01 T02640178  RH  059%=      5-min Rain = 0
KLO1 131514Z 18017KT 26/18 A30 RMK A01 T02640179  RH  059%=      5-min Rain = 0
KLO1 131515Z 19017KT 27/18 A30 RMK A01 T02660179  RH  059%=      5-min Rain = 0
KLO1 131516Z 20016KT 27/18 A30 RMK A01 T02680178  RH  058%=      5-min Rain = 0
KLO1 131517Z 19018KT 27/18 A30 RMK A01 T02690179  RH  058%=      5-min Rain = 0
KLO1 131518Z 18018KT 27/18 A3001 RMK A01 T02700179  RH  057%=      5-min Rain = 0
KLO1 131519Z 18018KT 27/18 A3001 RMK A01 T02700179  RH  057%=      5-min Rain = 0
KLO1 131520Z 17018KT 27/18 A3001 RMK A01 T02700179  RH  057%=      5-min Rain = 0
KLO1 131521Z 17017KT 27/18 A3001 RMK A01 T02700178  RH  057%=      5-min Rain = 0
KLO1 131522Z 20020KT 27/18 A3001 RMK A01 T02730178  RH  056%=      5-min Rain = 0
KLO1 131523Z 19017KT 27/18 A3001 RMK A01 T02720177  RH  056%=      5-min Rain = 0
KLO1 131524Z 19015KT 27/18 A3001 RMK A01 T02710178  RH  057%=      5-min Rain = 0
KLO1 131525Z 17016KT 27/18 A3001 RMK A01 T02700179  RH  057%=      5-min Rain = 0
KLO1 131526Z 17016KT 27/18 A3001 RMK A01 T02690178  RH  057%=      5-min Rain = 0
KLO1 131527Z 18015KT 27/18 A3001 RMK A01 T02680178  RH  058%=      5-min Rain = 0
KLO1 131528Z 19017KT 27/18 A3001 RMK A01 T02670178  RH  058%=      5-min Rain = 0
KLO1 131529Z 20018KT 27/18 A3001 RMK A01 T02660178  RH  058%=      5-min Rain = 0
KLO1 131530Z 19016KT 27/18 A3001 RMK A01 T02660178  RH  058%=      5-min Rain = 0
KLO1 131531Z 18015KT 27/18 A3001 RMK A01 T02670178  RH  058%=      5-min Rain = 0
KLO1 131532Z 18015KT 27/18 A3001 RMK A01 T02690179  RH  058%=      5-min Rain = 0
KLO1 131533Z 18017KT 27/18 A3001 RMK A01 T02720180  RH  057%=      5-min Rain = 0
KLO1 131534Z 18014KT 27/18 A3001 RMK A01 T02730179  RH  056%=      5-min Rain = 0
KLO1 131535Z 18016KT 27/18 A3001 RMK A01 T02740179  RH  056%=      5-min Rain = 0
KLO1 131536Z 17015KT 27/18 A3001 RMK A01 T02720179  RH  057%=      5-min Rain = 0
KLO1 131537Z 17013KT 27/18 A3001 RMK A01 T02720180  RH  057%=      5-min Rain = 0
KLO1 131538Z 18013KT 27/18 A3001 RMK A01 T02730180  RH  057%=      5-min Rain = 0
KLO1 131539Z 18013KT 27/18 A3001 RMK A01 T02720180  RH  057%=      5-min Rain = 0
KLO1 131540Z 19016KT 27/18 A3001 RMK A01 T02740177  RH  056%=      5-min Rain = 0
KLO1 131541Z 19014KT 27/18 A3001 RMK A01 T02740176  RH  055%=      5-min Rain = 0
KLO1 131542Z 19012KT 28/18 A3001 RMK A01 T02750177  RH  055%=      5-min Rain = 0
KLO1 131543Z 17014KT 28/18 A3001 RMK A01 T02750178  RH  055%=      5-min Rain = 0
KLO1 131544Z 18012KT 28/18 A3001 RMK A01 T02770180  RH  055%=      5-min Rain = 0
KLO1 131545Z 16015KT 28/18 A3001 RMK A01 T02790178  RH  054%=      5-min Rain = 0
KLO1 131546Z 17012KT 28/18 A3001 RMK A01 T02780178  RH  054%=      5-min Rain = 0
KLO1 131547Z 18017KT 28/18 A3001 RMK A01 T02790179  RH  054%=      5-min Rain = 0
KLO1 131548Z 18015KT 28/18 A3001 RMK A01 T02810177  RH  053%=      5-min Rain = 0
KLO1 131549Z 19012KT 28/18 A3001 RMK A01 T02800175  RH  053%=      5-min Rain = 0
KLO1 131550Z 18015KT 28/18 A3001 RMK A01 T02790176  RH  053%=      5-min Rain = 0
KLO1 131551Z 19017KT 28/18 A3001 RMK A01 T02810177  RH  053%=      5-min Rain = 0
KLO1 131552Z 20019KT 28/18 A3001 RMK A01 T02830175  RH  052%=      5-min Rain = 0
KLO1 131553Z 21017KT 29/17 A3001 RMK A01 T02850173  RH  051%=      5-min Rain = 0
KLO1 131554Z 21012KT 28/17 A3001 RMK A01 T02840171  RH  050%=      5-min Rain = 0
KLO1 131555Z 21012KT 29/17 A3001 RMK A01 T02860172  RH  050%=      5-min Rain = 0
KLO1 131556Z 19015KT 29/17 A3001 RMK A01 T02870174  RH  050%=      5-min Rain = 0
KLO1 131557Z 18018KT 29/18 A3001 RMK A01 T02870177  RH  051%=      5-min Rain = 0
KLO1 131558Z 17016KT 29/18 A3001 RMK A01 T02850178  RH  052%=      5-min Rain = 0
KLO1 131559Z 18013KT 28/18 A3001 RMK A01 T02840176  RH  052%=      5-min Rain = 0
KLO1 131600Z 19013KT 28/18 A3001 RMK A01 T02830176  RH  052%=      5-min Rain = 0
KLO1 131601Z 20013KT 28/17 A3001 RMK A01 T02840173  RH  051%=      5-min Rain = 0
KLO1 131602Z 20012KT 28/17 A3001 RMK A01 T02830172  RH  051%=      5-min Rain = 0
KLO1 131603Z 19013KT 28/17 A3001 RMK A01 T02820173  RH  052%=      5-min Rain = 0
KLO1 131604Z 20017KT 29/18 A3001 RMK A01 T02850175  RH  051%=      5-min Rain = 0
KLO1 131605Z 21017KT 29/17 A30 RMK A01 T02850174  RH  051%=      5-min Rain = 0
KLO1 131606Z 20014KT 28/18 A3001 RMK A01 T02820175  RH  052%=      5-min Rain = 0
KLO1 131607Z 18016KT 28/18 A30 RMK A01 T02830175  RH  052%=      5-min Rain = 0
KLO1 131608Z 18017KT 28/18 A3001 RMK A01 T02840175  RH  052%=      5-min Rain = 0
KLO1 131609Z 19014KT 28/17 A3001 RMK A01 T02840174  RH  051%=      5-min Rain = 0
KLO1 131610Z 17012KT 28/17 A3001 RMK A01 T02830174  RH  052%=      5-min Rain = 0
KLO1 131611Z 18013KT 28/18 A3001 RMK A01 T02830175  RH  052%=      5-min Rain = 0
KLO1 131612Z 18017G22KT 28/18 A3001 RMK A01 T02830176  RH  052%=      5-min Rain = 0
KLO1 131613Z 18012KT 28/18 A3001 RMK A01 T02820176  RH  053%=      5-min Rain = 0
KLO1 131614Z 18018KT 28/18 A3001 RMK A01 T02800176  RH  053%=      5-min Rain = 0
KLO1 131615Z 17017KT 28/18 A3001 RMK A01 T02810175  RH  053%=      5-min Rain = 0
KLO1 131616Z 18015KT 28/18 A3001 RMK A01 T02810175  RH  053%=      5-min Rain = 0
KLO1 131617Z 18013KT 28/18 A3001 RMK A01 T02790175  RH  053%=      5-min Rain = 0
KLO1 131618Z 17013KT 28/18 A3001 RMK A01 T02780175  RH  053%=      5-min Rain = 0
KLO1 131619Z 18012KT 28/17 A3001 RMK A01 T02760173  RH  053%=      5-min Rain = 0
KLO1 131620Z 18013KT 28/18 A3001 RMK A01 T02750176  RH  054%=      5-min Rain = 0
KLO1 131621Z 20015KT 28/17 A3001 RMK A01 T02750174  RH  054%=      5-min Rain = 0
KLO1 131622Z 20016KT 28/17 A3001 RMK A01 T02760172  RH  053%=      5-min Rain = 0
KLO1 131623Z 21014KT 28/17 A3001 RMK A01 T02770173  RH  053%=      5-min Rain = 0
KLO1 131624Z 19013KT 28/17 A3001 RMK A01 T02800174  RH  052%=      5-min Rain = 0
KLO1 131625Z 18014KT 28/17 A3001 RMK A01 T02830173  RH  051%=      5-min Rain = 0
KLO1 131626Z 18013KT 29/17 A3001 RMK A01 T02850173  RH  051%=      5-min Rain = 0
KLO1 131627Z 17011KT 29/17 A3001 RMK A01 T02880174  RH  050%=      5-min Rain = 0
KLO1 131628Z 17013KT 29/17 A30 RMK A01 T02900174  RH  049%=      5-min Rain = 0
KLO1 131629Z 20016KT 29/17 A30 RMK A01 T02910174  RH  049%=      5-min Rain = 0
KLO1 131630Z 20013KT 29/17 A30 RMK A01 T02890173  RH  049%=      5-min Rain = 0
KLO1 131631Z 20010KT 29/17 A30 RMK A01 T02860172  RH  050%=      5-min Rain = 0
KLO1 131632Z 20014KT 29/17 A30 RMK A01 T02850174  RH  051%=      5-min Rain = 0
KLO1 131633Z 17010KT 29/18 A30 RMK A01 T02860176  RH  051%=      5-min Rain = 0
KLO1 131634Z 19013KT 29/18 A30 RMK A01 T02930176  RH  049%=      5-min Rain = 0
KLO1 131635Z 20014KT 30/17 A30 RMK A01 T02960171  RH  047%=      5-min Rain = 0
KLO1 131636Z 20013KT 29/17 A30 RMK A01 T02920170  RH  048%=      5-min Rain = 0
KLO1 131637Z 20011KT 29/17 A30 RMK A01 T02910167  RH  047%=      5-min Rain = 0
KLO1 131638Z 19012KT 29/17 A30 RMK A01 T02920170  RH  048%=      5-min Rain = 0
KLO1 131639Z 19012KT 29/17 A30 RMK A01 T02930170  RH  048%=      5-min Rain = 0
KLO1 131640Z 20013KT 30/17 A30 RMK A01 T02950173  RH  048%=      5-min Rain = 0
KLO1 131641Z 19015KT 29/17 A30 RMK A01 T02940173  RH  048%=      5-min Rain = 0
KLO1 131642Z 19013KT 29/17 A30 RMK A01 T02930173  RH  049%=      5-min Rain = 0
KLO1 131643Z 18013KT 29/17 A30 RMK A01 T02940174  RH  048%=      5-min Rain = 0
KLO1 131644Z 19014KT 30/17 A30 RMK A01 T02960173  RH  048%=      5-min Rain = 0
KLO1 131645Z 19013KT 30/17 A30 RMK A01 T02960174  RH  048%=      5-min Rain = 0
KLO1 131646Z 20016G21KT 30/17 A30 RMK A01 T02970173  RH  047%=      5-min Rain = 0
KLO1 131647Z 21013KT 30/17 A30 RMK A01 T03000169  RH  045%=      5-min Rain = 0
KLO1 131648Z 20011KT 30/17 A30 RMK A01 T02990168  RH  045%=      5-min Rain = 0
KLO1 131649Z 20009KT 30/17 A30 RMK A01 T02990167  RH  045%=      5-min Rain = 0
KLO1 131650Z 19014G21KT 30/17 A30 RMK A01 T02990168  RH  045%=      5-min Rain = 0
KLO1 131651Z 20017G22KT 30/17 A30 RMK A01 T02990169  RH  046%=      5-min Rain = 0
KLO1 131652Z 19014KT 30/17 A30 RMK A01 T02980168  RH  045%=      5-min Rain = 0
KLO1 131653Z 20012KT 30/17 A30 RMK A01 T02960165  RH  045%=      5-min Rain = 0
KLO1 131654Z 20009KT 29/16 A30 RMK A01 T02930164  RH  046%=      5-min Rain = 0
KLO1 131655Z 17010KT 29/17 A30 RMK A01 T02930167  RH  046%=      5-min Rain = 0
KLO1 131656Z 17013KT 30/17 A30 RMK A01 T02970171  RH  047%=      5-min Rain = 0
KLO1 131657Z 19012KT 30/17 A30 RMK A01 T02990169  RH  046%=      5-min Rain = 0
KLO1 131658Z 19014KT 30/17 A30 RMK A01 T02990167  RH  045%=      5-min Rain = 0
KLO1 131659Z 19013KT 30/17 A30 RMK A01 T03020166  RH  044%=      5-min Rain = 0
KLO1 131700Z 18011KT 30/17 A30 RMK A01 T03040165  RH  043%=      5-min Rain = 0
KLO1 131701Z 18012KT 30/16 A30 RMK A01 T03010164  RH  044%=      5-min Rain = 0
KLO1 131702Z 18010KT 30/16 A30 RMK A01 T02990164  RH  044%=      5-min Rain = 0
KLO1 131703Z 20014KT 30/17 A2999 RMK A01 T03010167  RH  044%=      5-min Rain = 0
KLO1 131704Z 20011KT 30/17 A2999 RMK A01 T03020168  RH  044%=      5-min Rain = 0
KLO1 131705Z 18012KT 30/17 A2999 RMK A01 T03040171  RH  045%=      5-min Rain = 0
KLO1 131706Z 17013KT 31/17 A2999 RMK A01 T03060171  RH  044%=      5-min Rain = 0
KLO1 131707Z 17014KT 31/17 A2999 RMK A01 T03050171  RH  045%=      5-min Rain = 0
KLO1 131708Z 19013KT 31/17 A2999 RMK A01 T03060173  RH  045%=      5-min Rain = 0
KLO1 131709Z 21015KT 31/17 A2999 RMK A01 T03090169  RH  043%=      5-min Rain = 0
KLO1 131710Z 19012KT 31/17 A2999 RMK A01 T03090170  RH  043%=      5-min Rain = 0
KLO1 131711Z 18015KT 31/17 A2999 RMK A01 T03070172  RH  044%=      5-min Rain = 0
KLO1 131712Z 20012KT 31/17 A2999 RMK A01 T03050171  RH  045%=      5-min Rain = 0
KLO1 131713Z 18012G17KT 30/17 A2999 RMK A01 T03040172  RH  045%=      5-min Rain = 0
KLO1 131714Z 19014G25KT 31/17 A2998 RMK A01 T03070169  RH  044%=      5-min Rain = 0
KLO1 131715Z 19008KT 31/17 A2999 RMK A01 T03090165  RH  042%=      5-min Rain = 0
KLO1 131716Z 19010G15KT 31/17 A2999 RMK A01 T03110166  RH  042%=      5-min Rain = 0
KLO1 131717Z 18014KT 31/17 A2999 RMK A01 T03120165  RH  041%=      5-min Rain = 0
KLO1 131718Z 18011KT 31/16 A2999 RMK A01 T03090164  RH  042%=      5-min Rain = 0
KLO1 131719Z 18012KT 31/16 A2999 RMK A01 T03070164  RH  042%=      5-min Rain = 0
KLO1 131720Z 19012KT 31/17 A2999 RMK A01 T03050167  RH  043%=      5-min Rain = 0
KLO1 131721Z 20012KT 31/17 A2999 RMK A01 T03080165  RH  042%=      5-min Rain = 0
KLO1 131722Z 19012KT 31/17 A2999 RMK A01 T03130166  RH  041%=      5-min Rain = 0
KLO1 131723Z 23009KT 31/16 A2999 RMK A01 T03130162  RH  040%=      5-min Rain = 0
KLO1 131724Z 19008KT 31/16 A2999 RMK A01 T03120162  RH  040%=      5-min Rain = 0
KLO1 131725Z 17010G15KT 31/17 A2998 RMK A01 T03130165  RH  041%=      5-min Rain = 0
KLO1 131726Z 18010G15KT 31/17 A2998 RMK A01 T03130167  RH  042%=      5-min Rain = 0
KLO1 131727Z 18015KT 31/17 A2998 RMK A01 T03140169  RH  042%=      5-min Rain = 0
KLO1 131728Z 20011KT 31/17 A2998 RMK A01 T03130166  RH  041%=      5-min Rain = 0
KLO1 131729Z 19007KT 31/16 A2999 RMK A01 T03120160  RH  040%=      5-min Rain = 0
KLO1 131730Z 18012KT 31/16 A2998 RMK A01 T03100163  RH  041%=      5-min Rain = 0
KLO1 131731Z 18013KT 31/17 A2998 RMK A01 T03100165  RH  042%=      5-min Rain = 0
KLO1 131732Z 19010KT 31/16 A2998 RMK A01 T03120164  RH  041%=      5-min Rain = 0
KLO1 131733Z 18010G15KT 31/16 A2998 RMK A01 T03100162  RH  041%=      5-min Rain = 0
KLO1 131734Z 18011G17KT 31/16 A2998 RMK A01 T03080161  RH  041%=      5-min Rain = 0
KLO1 131735Z 18009KT 31/16 A2998 RMK A01 T03080159  RH  041%=      5-min Rain = 0
KLO1 131736Z 17011KT 31/16 A2998 RMK A01 T03070160  RH  041%=      5-min Rain = 0
KLO1 131737Z 19012KT 31/16 A2998 RMK A01 T03070164  RH  042%=      5-min Rain = 0
KLO1 131738Z 20013KT 31/16 A2998 RMK A01 T03090161  RH  041%=      5-min Rain = 0
KLO1 131739Z 21010KT 31/16 A2998 RMK A01 T03080160  RH  041%=      5-min Rain = 0
KLO1 131740Z 20009KT 31/16 A2998 RMK A01 T03060159  RH  041%=      5-min Rain = 0
KLO1 131741Z 20013KT 31/16 A2998 RMK A01 T03050159  RH  041%=      5-min Rain = 0
KLO1 131742Z 20012KT 31/16 A2998 RMK A01 T03050161  RH  042%=      5-min Rain = 0
KLO1 131743Z 18012KT 30/16 A2998 RMK A01 T03040160  RH  042%=      5-min Rain = 0
KLO1 131744Z 18009KT 30/16 A2998 RMK A01 T03030161  RH  042%=      5-min Rain = 0
KLO1 131745Z 20008KT 30/16 A2998 RMK A01 T03020163  RH  043%=      5-min Rain = 0
KLO1 131746Z 21009KT 31/16 A2998 RMK A01 T03050160  RH  042%=      5-min Rain = 0
KLO1 131747Z 22009KT 31/16 A2998 RMK A01 T03050158  RH  041%=      5-min Rain = 0
KLO1 131748Z 20008KT 31/16 A2998 RMK A01 T03050158  RH  041%=      5-min Rain = 0
KLO1 131749Z 18008KT 31/15 A2998 RMK A01 T03060154  RH  040%=      5-min Rain = 0
KLO1 131750Z 18005KT 31/15 A2998 RMK A01 T03070153  RH  039%=      5-min Rain = 0
KLO1 131751Z 21006G11KT 31/16 A2998 RMK A01 T03070156  RH  040%=      5-min Rain = 0
KLO1 131752Z 21010KT 31/16 A2998 RMK A01 T03100156  RH  039%=      5-min Rain = 0
KLO1 131753Z 22009KT 31/16 A2998 RMK A01 T03140155  RH  038%=      5-min Rain = 0
KLO1 131754Z 24006KT 31/16 A2998 RMK A01 T03130155  RH  039%=      5-min Rain = 0
KLO1 131755Z 20009G14KT 31/16 A2998 RMK A01 T03110158  RH  040%=      5-min Rain = 0
KLO1 131756Z 19009KT 31/16 A2998 RMK A01 T03120158  RH  040%=      5-min Rain = 0
KLO1 131757Z 20010G15KT 31/16 A2998 RMK A01 T03110159  RH  040%=      5-min Rain = 0
KLO1 131758Z 19011KT 31/16 A2997 RMK A01 T03120160  RH  040%=      5-min Rain = 0
KLO1 131759Z 18008KT 31/16 A2997 RMK A01 T03130160  RH  040%=      5-min Rain = 0
KLO1 131800Z 18008KT 31/16 A2997 RMK A01 T03140159  RH  039%=      5-min Rain = 0
KLO1 131801Z 20008KT 32/16 A2997 RMK A01 T03150159  RH  039%=      5-min Rain = 0
KLO1 131802Z 19010KT 32/15 A2997 RMK A01 T03150154  RH  038%=      5-min Rain = 0
KLO1 131803Z 24006KT 32/15 A2997 RMK A01 T03160148  RH  036%=      5-min Rain = 0
KLO1 131804Z 22006KT 32/14 A2997 RMK A01 T03180144  RH  035%=      5-min Rain = 0
KLO1 131805Z 18008KT 32/15 A2997 RMK A01 T03200152  RH  036%=      5-min Rain = 0
KLO1 131806Z 22014G22KT 32/15 A2997 RMK A01 T03210154  RH  037%=      5-min Rain = 0
KLO1 131807Z 20006KT 32/15 A2997 RMK A01 T03220149  RH  035%=      5-min Rain = 0
KLO1 131808Z 21009KT 33/15 A2997 RMK A01 T03260151  RH  035%=      5-min Rain = 0
KLO1 131809Z 19006KT 33/15 A2997 RMK A01 T03260153  RH  035%=      5-min Rain = 0
KLO1 131810Z 16010G15KT 33/16 A2997 RMK A01 T03270160  RH  037%=      5-min Rain = 0
KLO1 131811Z 16011KT 32/16 A2997 RMK A01 T03240160  RH  037%=      5-min Rain = 0
KLO1 131812Z 15007KT 32/16 A2997 RMK A01 T03200159  RH  038%=      5-min Rain = 0
KLO1 131813Z 14010KT 32/16 A2997 RMK A01 T03170159  RH  039%=      5-min Rain = 0
KLO1 131814Z 14009KT 32/16 A2997 RMK A01 T03160159  RH  039%=      5-min Rain = 0
KLO1 131815Z 18010KT 32/16 A2997 RMK A01 T03160159  RH  039%=      5-min Rain = 0
KLO1 131816Z 18010KT 32/16 A2997 RMK A01 T03160159  RH  039%=      5-min Rain = 0
KLO1 131817Z 15009KT 32/16 A2997 RMK A01 T03150158  RH  039%=      5-min Rain = 0
KLO1 131818Z 14009KT 32/16 A2997 RMK A01 T03170158  RH  038%=      5-min Rain = 0
KLO1 131819Z 18012G17KT 32/16 A2997 RMK A01 T03180158  RH  038%=      5-min Rain = 0
KLO1 131820Z 19013KT 32/16 A2997 RMK A01 T03170157  RH  038%=      5-min Rain = 0
KLO1 131821Z 20014KT 32/16 A2997 RMK A01 T03180157  RH  038%=      5-min Rain = 0
KLO1 131822Z 20012KT 32/16 A2997 RMK A01 T03180156  RH  037%=      5-min Rain = 0
KLO1 131823Z 19011KT 32/16 A2997 RMK A01 T03170155  RH  038%=      5-min Rain = 0
KLO1 131824Z 18012KT 32/16 A2997 RMK A01 T03190155  RH  037%=      5-min Rain = 0
KLO1 131825Z 18012KT 32/15 A2997 RMK A01 T03210154  RH  036%=      5-min Rain = 0
KLO1 131826Z 20011KT 32/15 A2997 RMK A01 T03220152  RH  036%=      5-min Rain = 0
KLO1 131827Z 19012KT 32/15 A2997 RMK A01 T03230152  RH  036%=      5-min Rain = 0
KLO1 131828Z 19011KT 32/15 A2997 RMK A01 T03230151  RH  036%=      5-min Rain = 0
KLO1 131829Z 19009KT 32/15 A2997 RMK A01 T03200151  RH  036%=      5-min Rain = 0
KLO1 131830Z 20008G13KT 32/15 A2997 RMK A01 T03180150  RH  036%=      5-min Rain = 0
KLO1 131831Z 21009KT 32/15 A2997 RMK A01 T03160150  RH  037%=      5-min Rain = 0
KLO1 131832Z 21013KT 32/15 A2997 RMK A01 T03190152  RH  036%=      5-min Rain = 0
KLO1 131833Z 21009KT 32/15 A2997 RMK A01 T03210151  RH  036%=      5-min Rain = 0
KLO1 131834Z 19008KT 32/15 A2997 RMK A01 T03200152  RH  036%=      5-min Rain = 0
KLO1 131835Z 18011KT 32/15 A2996 RMK A01 T03200153  RH  036%=      5-min Rain = 0
KLO1 131836Z 18011KT 32/16 A2996 RMK A01 T03190155  RH  037%=      5-min Rain = 0
KLO1 131837Z 17013KT 32/15 A2996 RMK A01 T03180154  RH  037%=      5-min Rain = 0
KLO1 131838Z 16010KT 32/16 A2996 RMK A01 T03190155  RH  037%=      5-min Rain = 0
KLO1 131839Z 16009KT 32/15 A2996 RMK A01 T03200154  RH  037%=      5-min Rain = 0
KLO1 131840Z 16009KT 32/16 A2996 RMK A01 T03200155  RH  037%=      5-min Rain = 0
KLO1 131841Z 15010KT 32/16 A2996 RMK A01 T03230156  RH  037%=      5-min Rain = 0
KLO1 131842Z 14011KT 32/16 A2996 RMK A01 T03230155  RH  036%=      5-min Rain = 0
KLO1 131843Z 14009KT 32/16 A2996 RMK A01 T03230155  RH  036%=      5-min Rain = 0
KLO1 131844Z 21011KT 32/15 A2996 RMK A01 T03220153  RH  036%=      5-min Rain = 0
KLO1 131845Z 22011KT 32/15 A2996 RMK A01 T03240148  RH  035%=      5-min Rain = 0
KLO1 131846Z 21011KT 32/15 A2996 RMK A01 T03240147  RH  034%=      5-min Rain = 0
KLO1 131847Z 19012G17KT 33/15 A2996 RMK A01 T03270153  RH  035%=      5-min Rain = 0
KLO1 131848Z 19012G21KT 33/16 A2995 RMK A01 T03300155  RH  035%=      5-min Rain = 0
KLO1 131849Z 23009KT 33/15 A2996 RMK A01 T03310148  RH  033%=      5-min Rain = 0
KLO1 131850Z 21010KT 33/15 A2996 RMK A01 T03290146  RH  033%=      5-min Rain = 0
KLO1 131851Z 20011KT 33/15 A2996 RMK A01 T03300151  RH  034%=      5-min Rain = 0
KLO1 131852Z 18012KT 33/15 A2996 RMK A01 T03310154  RH  034%=      5-min Rain = 0
KLO1 131853Z 18010KT 33/15 A2996 RMK A01 T03270153  RH  035%=      5-min Rain = 0
KLO1 131854Z 19008KT 32/15 A2995 RMK A01 T03240152  RH  036%=      5-min Rain = 0
KLO1 131855Z 18007KT 33/15 A2995 RMK A01 T03260154  RH  035%=      5-min Rain = 0
KLO1 131856Z 17008KT 33/15 A2995 RMK A01 T03290152  RH  034%=      5-min Rain = 0
KLO1 131857Z 17010KT 33/15 A2995 RMK A01 T03310152  RH  034%=      5-min Rain = 0
KLO1 131858Z 18013KT 34/15 A2995 RMK A01 T03360149  RH  033%=      5-min Rain = 0
KLO1 131859Z 20011KT 33/15 A2995 RMK A01 T03340145  RH  032%=      5-min Rain = 0
KLO1 131900Z 20010KT 33/14 A2995 RMK A01 T03300144  RH  033%=      5-min Rain = 0
KLO1 131901Z 19006G13KT 33/15 A2995 RMK A01 T03280145  RH  033%=      5-min Rain = 0
KLO1 131902Z 16009KT 33/14 A2995 RMK A01 T03290144  RH  033%=      5-min Rain = 0
KLO1 131903Z 20008KT 33/14 A2995 RMK A01 T03280144  RH  033%=      5-min Rain = 0
KLO1 131904Z 21011KT 33/14 A2995 RMK A01 T03330144  RH  032%=      5-min Rain = 0
KLO1 131905Z 21012KT 33/14 A2995 RMK A01 T03340142  RH  031%=      5-min Rain = 0
KLO1 131906Z 21012KT 33/14 A2995 RMK A01 T03340142  RH  031%=      5-min Rain = 0
KLO1 131907Z 22006KT 33/14 A2995 RMK A01 T03310140  RH  032%=      5-min Rain = 0
KLO1 131908Z 19004KT 33/14 A2995 RMK A01 T03270141  RH  032%=      5-min Rain = 0
KLO1 131909Z 17006KT 33/14 A2995 RMK A01 T03280142  RH  033%=      5-min Rain = 0
KLO1 131910Z 16007G13KT 33/14 A2995 RMK A01 T03270143  RH  033%=      5-min Rain = 0
KLO1 131911Z 19008KT 33/14 A2995 RMK A01 T03270142  RH  033%=      5-min Rain = 0
KLO1 131912Z 20011KT 33/14 A2995 RMK A01 T03290141  RH  032%=      5-min Rain = 0
KLO1 131913Z 20013KT 33/14 A2995 RMK A01 T03310139  RH  031%=      5-min Rain = 0
KLO1 131914Z 21010KT 33/14 A2995 RMK A01 T03290138  RH  031%=      5-min Rain = 0
KLO1 131915Z 20009KT 33/14 A2995 RMK A01 T03260137  RH  032%=      5-min Rain = 0
KLO1 131916Z 19007KT 32/14 A2995 RMK A01 T03230137  RH  032%=      5-min Rain = 0
KLO1 131917Z 16006KT 32/14 A2995 RMK A01 T03240137  RH  032%=      5-min Rain = 0
KLO1 131918Z 17005KT 33/14 A2995 RMK A01 T03250137  RH  032%=      5-min Rain = 0
KLO1 131919Z 19006KT 33/14 A2995 RMK A01 T03250137  RH  032%=      5-min Rain = 0
KLO1 131920Z 22007KT 33/14 A2995 RMK A01 T03260136  RH  032%=      5-min Rain = 0
KLO1 131921Z 21009KT 33/14 A2995 RMK A01 T03250136  RH  032%=      5-min Rain = 0
KLO1 131922Z 22009KT 33/14 A2995 RMK A01 T03250136  RH  032%=      5-min Rain = 0
KLO1 131923Z 20010KT 33/14 A2995 RMK A01 T03300137  RH  031%=      5-min Rain = 0
KLO1 131924Z 19010KT 33/14 A2995 RMK A01 T03300136  RH  031%=      5-min Rain = 0
KLO1 131925Z 20008KT 33/14 A2995 RMK A01 T03280135  RH  031%=      5-min Rain = 0
KLO1 131926Z 21012KT 33/14 A2995 RMK A01 T03300136  RH  031%=      5-min Rain = 0
KLO1 131927Z 20008KT 33/14 A2995 RMK A01 T03310137  RH  031%=      5-min Rain = 0
KLO1 131928Z 18007KT 33/14 A2995 RMK A01 T03300136  RH  031%=      5-min Rain = 0
KLO1 131929Z 17010KT 33/14 A2995 RMK A01 T03320135  RH  030%=      5-min Rain = 0
KLO1 131930Z 15009KT 33/13 A2995 RMK A01 T03330134  RH  030%=      5-min Rain = 0
KLO1 131931Z 15008KT 33/13 A2995 RMK A01 T03320133  RH  030%=      5-min Rain = 0
KLO1 131932Z 19005KT 33/13 A2995 RMK A01 T03300134  RH  030%=      5-min Rain = 0
KLO1 131933Z 14004KT 33/13 A2995 RMK A01 T03300134  RH  031%=      5-min Rain = 0
KLO1 131934Z 14004KT 33/13 A2995 RMK A01 T03300133  RH  030%=      5-min Rain = 0
KLO1 131935Z 17006KT 33/13 A2995 RMK A01 T03290133  RH  031%=      5-min Rain = 0
KLO1 131936Z 17009KT 33/13 A2995 RMK A01 T03290132  RH  030%=      5-min Rain = 0
KLO1 131937Z 18009KT 33/13 A2995 RMK A01 T03280131  RH  030%=      5-min Rain = 0
KLO1 131938Z 19010KT 33/13 A2995 RMK A01 T03270130  RH  030%=      5-min Rain = 0
KLO1 131939Z 21009KT 33/13 A2995 RMK A01 T03290131  RH  030%=      5-min Rain = 0
KLO1 131940Z 17009KT 34/13 A2995 RMK A01 T03350130  RH  029%=      5-min Rain = 0
KLO1 131941Z 18009KT 34/13 A2995 RMK A01 T03370128  RH  028%=      5-min Rain = 0
KLO1 131942Z 18006KT 34/13 A2995 RMK A01 T03390130  RH  028%=      5-min Rain = 0
KLO1 131943Z 18006KT 34/13 A2995 RMK A01 T03400130  RH  028%=      5-min Rain = 0
KLO1 131944Z 17013KT 34/13 A2995 RMK A01 T03380127  RH  028%=      5-min Rain = 0
KLO1 131945Z 18009KT 34/12 A2995 RMK A01 T03350124  RH  028%=      5-min Rain = 0
KLO1 131946Z 18005KT 33/13 A2995 RMK A01 T03330125  RH  028%=      5-min Rain = 0
KLO1 131947Z 18007KT 33/13 A2994 RMK A01 T03330125  RH  028%=      5-min Rain = 0
KLO1 131948Z 20006KT 33/13 A2994 RMK A01 T03320125  RH  028%=      5-min Rain = 0
KLO1 131949Z 20006KT 33/13 A2994 RMK A01 T03320125  RH  029%=      5-min Rain = 0
KLO1 131950Z 21006KT 33/13 A2994 RMK A01 T03340126  RH  028%=      5-min Rain = 0
KLO1 131951Z 20009KT 34/13 A2994 RMK A01 T03350126  RH  028%=      5-min Rain = 0
KLO1 131952Z 17010KT 34/12 A2994 RMK A01 T03350124  RH  028%=      5-min Rain = 0
KLO1 131953Z 16005KT 33/12 A2995 RMK A01 T03340123  RH  028%=      5-min Rain = 0
KLO1 131954Z 16003KT 33/12 A2994 RMK A01 T03320123  RH  028%=      5-min Rain = 0
KLO1 131955Z 22005KT 33/12 A2994 RMK A01 T03320122  RH  028%=      5-min Rain = 0
KLO1 131956Z 23004KT 33/12 A2994 RMK A01 T03320117  RH  027%=      5-min Rain = 0
KLO1 131957Z 23008KT 33/12 A2994 RMK A01 T03300117  RH  027%=      5-min Rain = 0
KLO1 131958Z 23007KT 33/12 A2994 RMK A01 T03310117  RH  027%=      5-min Rain = 0
KLO1 131959Z 24005KT 33/12 A2994 RMK A01 T03340118  RH  027%=      5-min Rain = 0
KLO1 132000Z 20004KT 34/12 A2994 RMK A01 T03350119  RH  027%=      5-min Rain = 0
KLO1 132001Z 23005KT 34/12 A2994 RMK A01 T03370120  RH  027%=      5-min Rain = 0
KLO1 132002Z 20008G18KT 34/12 A2994 RMK A01 T03400120  RH  026%=      5-min Rain = 0
KLO1 132003Z 19009KT 34/12 A2994 RMK A01 T03430120  RH  026%=      5-min Rain = 0
KLO1 132004Z 20011KT 35/12 A2994 RMK A01 T03460116  RH  025%=      5-min Rain = 0
KLO1 132005Z 20011KT 35/11 A2994 RMK A01 T03450112  RH  024%=      5-min Rain = 0
KLO1 132006Z 21010KT 34/11 A2993 RMK A01 T03430108  RH  024%=      5-min Rain = 0
KLO1 132007Z 22011KT 34/11 A2993 RMK A01 T03430106  RH  024%=      5-min Rain = 0
KLO1 132008Z 21013KT 34/11 A2993 RMK A01 T03410106  RH  024%=      5-min Rain = 0
KLO1 132009Z 22011KT 34/10 A2993 RMK A01 T03410103  RH  023%=      5-min Rain = 0
KLO1 132010Z 21012KT 34/10 A2993 RMK A01 T03420101  RH  023%=      5-min Rain = 0
KLO1 132011Z 20010KT 34/10 A2993 RMK A01 T03440099  RH  022%=      5-min Rain = 0
KLO1 132012Z 19008KT 34/10 A2993 RMK A01 T03440095  RH  022%=      5-min Rain = 0
KLO1 132013Z 18008KT 34/09 A2993 RMK A01 T03440090  RH  021%=      5-min Rain = 0
KLO1 132014Z 17006KT 34/09 A2993 RMK A01 T03430087  RH  021%=      5-min Rain = 0
KLO1 132015Z 17003KT 34/09 A2993 RMK A01 T03410086  RH  021%=      5-min Rain = 0
KLO1 132016Z 14005KT 34/09 A2993 RMK A01 T03410094  RH  022%=      5-min Rain = 0
KLO1 132017Z 15004KT 34/09 A2992 RMK A01 T03410092  RH  022%=      5-min Rain = 0
KLO1 132018Z 15003KT 34/10 A2992 RMK A01 T03400099  RH  023%=      5-min Rain = 0
KLO1 132019Z 17002KT 34/10 A2992 RMK A01 T03400102  RH  023%=      5-min Rain = 0
KLO1 132020Z 14004KT 34/10 A2992 RMK A01 T03430104  RH  023%=      5-min Rain = 0
KLO1 132021Z 15006KT 35/11 A2992 RMK A01 T03450110  RH  024%=      5-min Rain = 0
KLO1 132022Z 17009KT 35/10 A2992 RMK A01 T03460101  RH  022%=      5-min Rain = 0
KLO1 132023Z 16008KT 34/10 A2991 RMK A01 T03440095  RH  022%=      5-min Rain = 0
KLO1 132024Z 17009KT 34/09 A2991 RMK A01 T03420094  RH  022%=      5-min Rain = 0
KLO1 132025Z 17007KT 34/10 A2991 RMK A01 T03410098  RH  023%=      5-min Rain = 0
KLO1 132026Z 17006KT 34/10 A2991 RMK A01 T03420099  RH  023%=      5-min Rain = 0
KLO1 132027Z 14007KT 34/10 A2991 RMK A01 T03440099  RH  022%=      5-min Rain = 0
KLO1 132028Z 14006KT 34/10 A299 RMK A01 T03440098  RH  022%=      5-min Rain = 0
KLO1 132029Z 14007KT 34/10 A299 RMK A01 T03430097  RH  022%=      5-min Rain = 0
KLO1 132030Z 11005KT 34/10 A299 RMK A01 T03410095  RH  022%=      5-min Rain = 0
KLO1 132031Z 10006KT 34/10 A299 RMK A01 T03400097  RH  023%=      5-min Rain = 0
KLO1 132032Z 10006KT 34/10 A299 RMK A01 T03430097  RH  022%=      5-min Rain = 0
KLO1 132033Z 10005KT 35/10 A299 RMK A01 T03450097  RH  022%=      5-min Rain = 0
KLO1 132034Z 14005KT 35/10 A299 RMK A01 T03470097  RH  022%=      5-min Rain = 0
KLO1 132035Z 14006KT 35/10 A299 RMK A01 T03490096  RH  021%=      5-min Rain = 0
KLO1 132036Z 13005KT 35/09 A299 RMK A01 T03480094  RH  021%=      5-min Rain = 0
KLO1 132037Z 16006KT 35/10 A299 RMK A01 T03460096  RH  022%=      5-min Rain = 0
KLO1 132038Z 15006KT 35/10 A299 RMK A01 T03470096  RH  022%=      5-min Rain = 0
KLO1 132039Z 14006KT 34/10 A299 RMK A01 T03440095  RH  022%=      5-min Rain = 0
KLO1 132040Z 14004KT 34/10 A299 RMK A01 T03420095  RH  022%=      5-min Rain = 0
KLO1 132041Z 17003KT 34/10 A299 RMK A01 T03400095  RH  022%=      5-min Rain = 0
KLO1 132042Z 12002KT 34/10 A299 RMK A01 T03400095  RH  022%=      5-min Rain = 0
KLO1 132043Z 11002KT 34/10 A299 RMK A01 T03420096  RH  022%=      5-min Rain = 0
KLO1 132044Z 11006KT 34/10 A299 RMK A01 T03440095  RH  022%=      5-min Rain = 0
KLO1 132045Z 13006KT 34/09 A299 RMK A01 T03430094  RH  022%=      5-min Rain = 0
KLO1 132046Z 12005KT 34/09 A299 RMK A01 T03410093  RH  022%=      5-min Rain = 0
KLO1 132047Z 14005KT 34/09 A299 RMK A01 T03410092  RH  022%=      5-min Rain = 0
KLO1 132048Z 18007KT 34/09 A299 RMK A01 T03420094  RH  022%=      5-min Rain = 0
KLO1 132049Z 19006KT 34/09 A299 RMK A01 T03410093  RH  022%=      5-min Rain = 0
KLO1 132050Z 20004KT 34/09 A299 RMK A01 T03390093  RH  022%=      5-min Rain = 0
KLO1 132051Z 15004KT 34/10 A299 RMK A01 T03390096  RH  023%=      5-min Rain = 0
KLO1 132052Z 11005KT 34/10 A299 RMK A01 T03440099  RH  022%=      5-min Rain = 0
KLO1 132053Z 12008KT 35/10 A299 RMK A01 T03450098  RH  022%=      5-min Rain = 0
KLO1 132054Z 10006KT 34/10 A299 RMK A01 T03440099  RH  022%=      5-min Rain = 0
KLO1 132055Z 10004KT 34/10 A299 RMK A01 T03420101  RH  023%=      5-min Rain = 0
KLO1 132056Z 13006KT 34/10 A299 RMK A01 T03430102  RH  023%=      5-min Rain = 0
KLO1 132057Z 14008KT 35/10 A299 RMK A01 T03450102  RH  023%=      5-min Rain = 0
KLO1 132058Z 14008KT 35/10 A299 RMK A01 T03470103  RH  023%=      5-min Rain = 0
KLO1 132059Z 13008KT 35/10 A299 RMK A01 T03480100  RH  022%=      5-min Rain = 0
KLO1 132100Z 14008KT 35/10 A299 RMK A01 T03490097  RH  021%=      5-min Rain = 0
KLO1 132101Z 12007KT 35/10 A299 RMK A01 T03510100  RH  022%=      5-min Rain = 0
KLO1 132102Z 12006KT 35/10 A299 RMK A01 T03530102  RH  022%=      5-min Rain = 0
KLO1 132103Z 14010KT 36/10 A299 RMK A01 T03570103  RH  021%=      5-min Rain = 0
KLO1 132104Z 16008KT 36/10 A2989 RMK A01 T03550103  RH  022%=      5-min Rain = 0
KLO1 132105Z 16008KT 35/10 A2989 RMK A01 T03520104  RH  022%=      5-min Rain = 0
KLO1 132106Z 15008KT 35/11 A2989 RMK A01 T03520105  RH  022%=      5-min Rain = 0
KLO1 132107Z 13006KT 35/11 A2989 RMK A01 T03510107  RH  023%=      5-min Rain = 0
KLO1 132108Z 17010G15KT 35/11 A2989 RMK A01 T03510107  RH  023%=      5-min Rain = 0
KLO1 132109Z 18011KT 35/11 A2989 RMK A01 T03490105  RH  023%=      5-min Rain = 0
KLO1 132110Z 17009KT 35/11 A2989 RMK A01 T03470105  RH  023%=      5-min Rain = 0
KLO1 132111Z 17007KT 35/11 A2989 RMK A01 T03460106  RH  023%=      5-min Rain = 0
KLO1 132112Z 16004KT 34/11 A2989 RMK A01 T03440105  RH  023%=      5-min Rain = 0
KLO1 132113Z 17007KT 34/11 A2989 RMK A01 T03440107  RH  024%=      5-min Rain = 0
KLO1 132114Z 14010KT 35/11 A2989 RMK A01 T03450106  RH  023%=      5-min Rain = 0
KLO1 132115Z 13010KT 35/11 A2989 RMK A01 T03470105  RH  023%=      5-min Rain = 0
KLO1 132116Z 12008KT 35/10 A2989 RMK A01 T03480104  RH  023%=      5-min Rain = 0
KLO1 132117Z 13007KT 35/10 A2989 RMK A01 T03470104  RH  023%=      5-min Rain = 0
KLO1 132118Z 15007KT 35/10 A2989 RMK A01 T03460104  RH  023%=      5-min Rain = 0
KLO1 132119Z 13008KT 35/10 A2989 RMK A01 T03470104  RH  023%=      5-min Rain = 0
KLO1 132120Z 13008KT 35/10 A2989 RMK A01 T03480103  RH  023%=      5-min Rain = 0
KLO1 132121Z 14011KT 35/10 A2989 RMK A01 T03490104  RH  023%=      5-min Rain = 0
KLO1 132122Z 14014KT 35/10 A2989 RMK A01 T03520104  RH  022%=      5-min Rain = 0
KLO1 132123Z 14013KT 35/10 A2989 RMK A01 T03520104  RH  022%=      5-min Rain = 0
KLO1 132124Z 14011KT 35/10 A2989 RMK A01 T03470103  RH  023%=      5-min Rain = 0
KLO1 132125Z 17009KT 35/10 A2989 RMK A01 T03450104  RH  023%=      5-min Rain = 0
KLO1 132126Z 17011KT 34/10 A2989 RMK A01 T03440104  RH  023%=      5-min Rain = 0
KLO1 132127Z 14008KT 34/11 A2989 RMK A01 T03430105  RH  024%=      5-min Rain = 0
KLO1 132128Z 16008G15KT 34/11 A2989 RMK A01 T03410107  RH  024%=      5-min Rain = 0
KLO1 132129Z 16017KT 34/13 A2989 RMK A01 T03410131  RH  028%=      5-min Rain = 0
KLO1 132130Z 16015G20KT 34/14 A2989 RMK A01 T03430139  RH  029%=      5-min Rain = 0
KLO1 132131Z 16017KT 34/14 A2988 RMK A01 T03440139  RH  029%=      5-min Rain = 0
KLO1 132132Z 17017KT 34/14 A2988 RMK A01 T03440140  RH  029%=      5-min Rain = 0
KLO1 132133Z 16016KT 35/14 A2988 RMK A01 T03460139  RH  029%=      5-min Rain = 0
KLO1 132134Z 16017KT 35/14 A2988 RMK A01 T03460136  RH  028%=      5-min Rain = 0
KLO1 132135Z 16018G23KT 34/14 A2988 RMK A01 T03430137  RH  029%=      5-min Rain = 0
KLO1 132136Z 17018KT 34/14 A2989 RMK A01 T03410142  RH  030%=      5-min Rain = 0
KLO1 132137Z 15017KT 34/15 A2989 RMK A01 T03400145  RH  031%=      5-min Rain = 0
KLO1 132138Z 15018KT 34/15 A2989 RMK A01 T03390146  RH  031%=      5-min Rain = 0
KLO1 132139Z 15017KT 34/15 A2989 RMK A01 T03370146  RH  032%=      5-min Rain = 0
KLO1 132140Z 14017KT 34/15 A2989 RMK A01 T03370145  RH  031%=      5-min Rain = 0
KLO1 132141Z 16017KT 34/14 A2989 RMK A01 T03380144  RH  031%=      5-min Rain = 0
KLO1 132142Z 16018KT 34/15 A2988 RMK A01 T03390145  RH  031%=      5-min Rain = 0
KLO1 132143Z 16018KT 34/15 A2989 RMK A01 T03370146  RH  032%=      5-min Rain = 0
KLO1 132144Z 16019KT 34/15 A2989 RMK A01 T03350148  RH  033%=      5-min Rain = 0
KLO1 132145Z 16020KT 33/15 A2989 RMK A01 T03340149  RH  033%=      5-min Rain = 0
KLO1 132146Z 15018KT 33/15 A2989 RMK A01 T03330147  RH  033%=      5-min Rain = 0
KLO1 132147Z 15016KT 33/15 A2989 RMK A01 T03320146  RH  033%=      5-min Rain = 0
KLO1 132148Z 15017KT 33/15 A2989 RMK A01 T03330148  RH  033%=      5-min Rain = 0
KLO1 132149Z 15016G22KT 33/15 A2989 RMK A01 T03330148  RH  033%=      5-min Rain = 0
KLO1 132150Z 15019KT 34/15 A2989 RMK A01 T03350150  RH  033%=      5-min Rain = 0
KLO1 132151Z 16017KT 33/15 A2989 RMK A01 T03330150  RH  033%=      5-min Rain = 0
KLO1 132152Z 15018KT 34/15 A2989 RMK A01 T03350151  RH  033%=      5-min Rain = 0
KLO1 132153Z 15019KT 34/15 A2989 RMK A01 T03360150  RH  033%=      5-min Rain = 0
KLO1 132154Z 15019KT 34/15 A2989 RMK A01 T03360151  RH  033%=      5-min Rain = 0
KLO1 132155Z 15017KT 34/15 A2989 RMK A01 T03370152  RH  033%=      5-min Rain = 0
KLO1 132156Z 15018KT 34/15 A2989 RMK A01 T03400151  RH  032%=      5-min Rain = 0
KLO1 132157Z 16016KT 34/15 A2989 RMK A01 T03380151  RH  033%=      5-min Rain = 0
KLO1 132158Z 16015KT 34/15 A2989 RMK A01 T03380149  RH  032%=      5-min Rain = 0
KLO1 132159Z 17014G19KT 34/15 A2988 RMK A01 T03350149  RH  033%=      5-min Rain = 0
KLO1 132200Z 16015KT 34/15 A2988 RMK A01 T03370150  RH  033%=      5-min Rain = 0
KLO1 132201Z 15016G22KT 34/15 A2988 RMK A01 T03390151  RH  032%=      5-min Rain = 0
KLO1 132202Z 15018G23KT 34/15 A2988 RMK A01 T03400151  RH  032%=      5-min Rain = 0
KLO1 132203Z 15016KT 34/15 A2988 RMK A01 T03390149  RH  032%=      5-min Rain = 0
KLO1 132204Z 15017KT 34/15 A2988 RMK A01 T03360149  RH  032%=      5-min Rain = 0
KLO1 132205Z 15018KT 34/15 A2988 RMK A01 T03360147  RH  032%=      5-min Rain = 0
KLO1 132206Z 15016KT 34/15 A2988 RMK A01 T03360147  RH  032%=      5-min Rain = 0
KLO1 132207Z 15015G20KT 34/15 A2988 RMK A01 T03350146  RH  032%=      5-min Rain = 0
KLO1 132208Z 15015KT 34/15 A2988 RMK A01 T03350146  RH  032%=      5-min Rain = 0
KLO1 132209Z 15015G20KT 34/15 A2988 RMK A01 T03370146  RH  032%=      5-min Rain = 0
KLO1 132210Z 15018KT 34/15 A2988 RMK A01 T03380145  RH  031%=      5-min Rain = 0
KLO1 132211Z 15012G17KT 34/14 A2988 RMK A01 T03370144  RH  031%=      5-min Rain = 0
KLO1 132212Z 16013KT 34/14 A2988 RMK A01 T03360144  RH  032%=      5-min Rain = 0
KLO1 132213Z 15014G19KT 34/14 A2988 RMK A01 T03370142  RH  031%=      5-min Rain = 0
KLO1 132214Z 16015KT 34/14 A2988 RMK A01 T03380142  RH  031%=      5-min Rain = 0
KLO1 132215Z 15014KT 34/14 A2988 RMK A01 T03370141  RH  031%=      5-min Rain = 0
KLO1 132216Z 15012KT 34/14 A2988 RMK A01 T03350141  RH  031%=      5-min Rain = 0
KLO1 132217Z 15009KT 33/14 A2988 RMK A01 T03340143  RH  032%=      5-min Rain = 0
KLO1 132218Z 15016KT 34/14 A2987 RMK A01 T03350144  RH  032%=      5-min Rain = 0
KLO1 132219Z 14017KT 33/15 A2988 RMK A01 T03340145  RH  032%=      5-min Rain = 0
KLO1 132220Z 15018KT 33/14 A2988 RMK A01 T03340144  RH  032%=      5-min Rain = 0
KLO1 132221Z 15012KT 33/14 A2988 RMK A01 T03340144  RH  032%=      5-min Rain = 0
KLO1 132222Z 15012KT 33/14 A2988 RMK A01 T03340144  RH  032%=      5-min Rain = 0
KLO1 132223Z 15012KT 33/14 A2988 RMK A01 T03330143  RH  032%=      5-min Rain = 0
KLO1 132224Z 14015KT 33/14 A2988 RMK A01 T03320142  RH  032%=      5-min Rain = 0
KLO1 132225Z 15015KT 33/14 A2988 RMK A01 T03320142  RH  032%=      5-min Rain = 0
KLO1 132226Z 16013KT 33/14 A2988 RMK A01 T03320142  RH  032%=      5-min Rain = 0
KLO1 132227Z 16011KT 33/14 A2988 RMK A01 T03320142  RH  032%=      5-min Rain = 0
KLO1 132228Z 15010KT 33/14 A2988 RMK A01 T03310141  RH  032%=      5-min Rain = 0
KLO1 132229Z 13012KT 33/14 A2988 RMK A01 T03330141  RH  031%=      5-min Rain = 0
KLO1 132230Z 14011KT 33/14 A2988 RMK A01 T03340142  RH  031%=      5-min Rain = 0
KLO1 132231Z 15013KT 34/14 A2988 RMK A01 T03360143  RH  031%=      5-min Rain = 0
KLO1 132232Z 15012KT 34/14 A2988 RMK A01 T03350141  RH  031%=      5-min Rain = 0
KLO1 132233Z 15012KT 33/14 A2988 RMK A01 T03340141  RH  031%=      5-min Rain = 0
KLO1 132234Z 15011KT 33/14 A2988 RMK A01 T03330141  RH  031%=      5-min Rain = 0
KLO1 132235Z 14016KT 33/14 A2988 RMK A01 T03340142  RH  031%=      5-min Rain = 0
KLO1 132236Z 15014KT 33/14 A2988 RMK A01 T03340142  RH  031%=      5-min Rain = 0
KLO1 132237Z 15012KT 33/14 A2988 RMK A01 T03330142  RH  031%=      5-min Rain = 0
KLO1 132238Z 14014KT 33/14 A2988 RMK A01 T03340141  RH  031%=      5-min Rain = 0
KLO1 132239Z 15014KT 34/14 A2988 RMK A01 T03360140  RH  031%=      5-min Rain = 0
KLO1 132240Z 15013KT 34/14 A2988 RMK A01 T03380139  RH  030%=      5-min Rain = 0
KLO1 132241Z 13011KT 34/14 A2988 RMK A01 T03360137  RH  030%=      5-min Rain = 0
KLO1 132242Z 13013KT 34/14 A2988 RMK A01 T03360137  RH  030%=      5-min Rain = 0
KLO1 132243Z 14013KT 34/14 A2988 RMK A01 T03360137  RH  030%=      5-min Rain = 0
KLO1 132244Z 13014KT 34/14 A2988 RMK A01 T03360137  RH  030%=      5-min Rain = 0
KLO1 132245Z 16012KT 34/14 A2988 RMK A01 T03370138  RH  030%=      5-min Rain = 0
KLO1 132246Z 17013KT 34/14 A2988 RMK A01 T03390137  RH  030%=      5-min Rain = 0
KLO1 132247Z 17013KT 34/14 A2988 RMK A01 T03400136  RH  029%=      5-min Rain = 0
KLO1 132248Z 16014KT 34/14 A2988 RMK A01 T03380135  RH  029%=      5-min Rain = 0
KLO1 132249Z 15013KT 34/13 A2988 RMK A01 T03350134  RH  030%=      5-min Rain = 0
KLO1 132250Z 16012KT 33/13 A2988 RMK A01 T03340134  RH  030%=      5-min Rain = 0
KLO1 132251Z 16009KT 33/13 A2988 RMK A01 T03330134  RH  030%=      5-min Rain = 0
KLO1 132252Z 15015KT 33/14 A2988 RMK A01 T03330135  RH  030%=      5-min Rain = 0
KLO1 132253Z 15013KT 33/14 A2988 RMK A01 T03330135  RH  030%=      5-min Rain = 0
KLO1 132254Z 15013KT 33/13 A2988 RMK A01 T03340134  RH  030%=      5-min Rain = 0
KLO1 132255Z 14012KT 33/13 A2988 RMK A01 T03330134  RH  030%=      5-min Rain = 0
KLO1 132256Z 14015G20KT 33/13 A2988 RMK A01 T03330133  RH  030%=      5-min Rain = 0
KLO1 132257Z 15013KT 33/13 A2988 RMK A01 T03330133  RH  030%=      5-min Rain = 0
KLO1 132258Z 15011KT 33/13 A2988 RMK A01 T03330133  RH  030%=      5-min Rain = 0
KLO1 132259Z 16013KT 33/13 A2988 RMK A01 T03330133  RH  030%=      5-min Rain = 0
KLO1 132300Z 15013KT 33/13 A2988 RMK A01 T03330132  RH  030%=      5-min Rain = 0
KLO1 132301Z 15012KT 33/13 A2988 RMK A01 T03320132  RH  030%=      5-min Rain = 0
KLO1 132302Z 16011KT 33/13 A2988 RMK A01 T03330130  RH  029%=      5-min Rain = 0
KLO1 132303Z 15011KT 33/13 A2988 RMK A01 T03330129  RH  029%=      5-min Rain = 0
KLO1 132304Z 15012G19KT 33/13 A2988 RMK A01 T03320129  RH  029%=      5-min Rain = 0
KLO1 132305Z 16015KT 33/13 A2988 RMK A01 T03320128  RH  029%=      5-min Rain = 0
KLO1 132306Z 15013KT 33/13 A2988 RMK A01 T03320127  RH  029%=      5-min Rain = 0
KLO1 132307Z 16013KT 33/13 A2988 RMK A01 T03320127  RH  029%=      5-min Rain = 0
KLO1 132308Z 16010KT 33/13 A2988 RMK A01 T03330127  RH  029%=      5-min Rain = 0
KLO1 132309Z 16012KT 33/13 A2988 RMK A01 T03340127  RH  028%=      5-min Rain = 0
KLO1 132310Z 16012KT 33/13 A2988 RMK A01 T03340126  RH  028%=      5-min Rain = 0
KLO1 132311Z 16010KT 33/13 A2988 RMK A01 T03340126  RH  028%=      5-min Rain = 0
KLO1 132312Z 17009KT 33/13 A2988 RMK A01 T03330126  RH  028%=      5-min Rain = 0
KLO1 132313Z 15010KT 33/13 A2988 RMK A01 T03340126  RH  028%=      5-min Rain = 0
KLO1 132314Z 16011KT 34/13 A2988 RMK A01 T03350125  RH  028%=      5-min Rain = 0
KLO1 132315Z 15011KT 34/13 A2988 RMK A01 T03360125  RH  028%=      5-min Rain = 0
KLO1 132316Z 15012KT 34/12 A2987 RMK A01 T03370124  RH  027%=      5-min Rain = 0
KLO1 132317Z 15010KT 34/12 A2987 RMK A01 T03380122  RH  027%=      5-min Rain = 0
KLO1 132318Z 15010KT 34/12 A2987 RMK A01 T03380121  RH  027%=      5-min Rain = 0
KLO1 132319Z 16012KT 34/12 A2987 RMK A01 T03400120  RH  026%=      5-min Rain = 0
KLO1 132320Z 15011KT 34/12 A2987 RMK A01 T03390118  RH  026%=      5-min Rain = 0
KLO1 132321Z 16010KT 34/12 A2987 RMK A01 T03380117  RH  026%=      5-min Rain = 0
KLO1 132322Z 15010KT 34/12 A2987 RMK A01 T03390118  RH  026%=      5-min Rain = 0
KLO1 132323Z 14013KT 34/12 A2987 RMK A01 T03400118  RH  026%=      5-min Rain = 0
KLO1 132324Z 15009KT 34/12 A2987 RMK A01 T03400117  RH  026%=      5-min Rain = 0
KLO1 132325Z 15012KT 34/12 A2987 RMK A01 T03400115  RH  026%=      5-min Rain = 0
KLO1 132326Z 15012KT 34/11 A2987 RMK A01 T03400114  RH  025%=      5-min Rain = 0
KLO1 132327Z 15012KT 34/11 A2987 RMK A01 T03400113  RH  025%=      5-min Rain = 0
KLO1 132328Z 15014KT 34/11 A2987 RMK A01 T03400110  RH  025%=      5-min Rain = 0
KLO1 132329Z 15012KT 34/11 A2987 RMK A01 T03380108  RH  025%=      5-min Rain = 0
KLO1 132330Z 14013KT 34/11 A2987 RMK A01 T03370107  RH  025%=      5-min Rain = 0
KLO1 132331Z 15011KT 34/11 A2987 RMK A01 T03380107  RH  024%=      5-min Rain = 0
KLO1 132332Z 15012KT 34/11 A2987 RMK A01 T03380107  RH  024%=      5-min Rain = 0
KLO1 132333Z 16014KT 34/10 A2987 RMK A01 T03370104  RH  024%=      5-min Rain = 0
KLO1 132334Z 16012KT 34/10 A2987 RMK A01 T03370103  RH  024%=      5-min Rain = 0
KLO1 132335Z 16014KT 34/10 A2987 RMK A01 T03370102  RH  024%=      5-min Rain = 0
KLO1 132336Z 16014KT 34/10 A2987 RMK A01 T03370102  RH  024%=      5-min Rain = 0
KLO1 132337Z 16011KT 34/10 A2987 RMK A01 T03360101  RH  024%=      5-min Rain = 0
KLO1 132338Z 17009KT 34/10 A2987 RMK A01 T03360101  RH  024%=      5-min Rain = 0
KLO1 132339Z 17010KT 34/10 A2987 RMK A01 T03360102  RH  024%=      5-min Rain = 0
KLO1 132340Z 17011KT 34/10 A2987 RMK A01 T03370102  RH  024%=      5-min Rain = 0
KLO1 132341Z 17013KT 34/10 A2987 RMK A01 T03370104  RH  024%=      5-min Rain = 0
KLO1 132342Z 17011KT 34/10 A2987 RMK A01 T03360104  RH  024%=      5-min Rain = 0
KLO1 132343Z 17010KT 34/10 A2987 RMK A01 T03360104  RH  024%=      5-min Rain = 0
KLO1 132344Z 16009KT 34/11 A2988 RMK A01 T03360105  RH  024%=      5-min Rain = 0
KLO1 132345Z 17013KT 34/11 A2987 RMK A01 T03380110  RH  025%=      5-min Rain = 0
KLO1 132346Z 16012KT 34/11 A2987 RMK A01 T03360111  RH  025%=      5-min Rain = 0
KLO1 132347Z 16013KT 34/11 A2987 RMK A01 T03350112  RH  026%=      5-min Rain = 0
KLO1 132348Z 15011KT 34/11 A2988 RMK A01 T03350113  RH  026%=      5-min Rain = 0
KLO1 132349Z 15012KT 34/11 A2987 RMK A01 T03350113  RH  026%=      5-min Rain = 0
KLO1 132350Z 15012KT 34/11 A2988 RMK A01 T03360113  RH  026%=      5-min Rain = 0
KLO1 132351Z 15010KT 34/11 A2987 RMK A01 T03360114  RH  026%=      5-min Rain = 0
KLO1 132352Z 15012G17KT 34/12 A2987 RMK A01 T03370118  RH  026%=      5-min Rain = 0
KLO1 132353Z 15015KT 34/13 A2987 RMK A01 T03380133  RH  029%=      5-min Rain = 0
KLO1 132354Z 15013KT 34/14 A2987 RMK A01 T03350136  RH  030%=      5-min Rain = 0
KLO1 132355Z 15013KT 33/14 A2987 RMK A01 T03340137  RH  031%=      5-min Rain = 0
KLO1 132356Z 16013G18KT 34/14 A2987 RMK A01 T03350139  RH  031%=      5-min Rain = 0
KLO1 132357Z 16015KT 34/14 A2987 RMK A01 T03350138  RH  031%=      5-min Rain = 0
KLO1 132358Z 15014G19KT 33/14 A2987 RMK A01 T03340139  RH  031%=      5-min Rain = 0
KLO1 132359Z 16016KT 33/14 A2987 RMK A01 T03330139  RH  031%=      5-min Rain = 0
KLO1 140000Z 16016KT 33/14 A2988 RMK A01 T03320140  RH  031%=      5-min Rain = 0
KLO1 140001Z 16017KT 33/14 A2988 RMK A01 T03300140  RH  032%=      5-min Rain = 0
KLO1 140002Z 16014KT 33/14 A2988 RMK A01 T03280140  RH  032%=      5-min Rain = 0
KLO1 140003Z 16014KT 33/14 A2988 RMK A01 T03270140  RH  032%=      5-min Rain = 0
KLO1 140004Z 16017KT 33/14 A2988 RMK A01 T03270142  RH  033%=      5-min Rain = 0
KLO1 140005Z 16017KT 33/15 A2988 RMK A01 T03260146  RH  034%=      5-min Rain = 0
KLO1 140006Z 16018KT 32/15 A2988 RMK A01 T03240148  RH  034%=      5-min Rain = 0
KLO1 140007Z 16018KT 32/15 A2988 RMK A01 T03230150  RH  035%=      5-min Rain = 0
KLO1 140008Z 17016KT 32/15 A2988 RMK A01 T03210150  RH  036%=      5-min Rain = 0
KLO1 140009Z 17015KT 32/15 A2988 RMK A01 T03200150  RH  036%=      5-min Rain = 0
KLO1 140010Z 17018KT 32/15 A2988 RMK A01 T03200149  RH  036%=      5-min Rain = 0
KLO1 140011Z 16017KT 32/15 A2988 RMK A01 T03190148  RH  036%=      5-min Rain = 0
KLO1 140012Z 16017KT 32/15 A2988 RMK A01 T03180149  RH  036%=      5-min Rain = 0
KLO1 140013Z 17016KT 32/15 A2988 RMK A01 T03180149  RH  036%=      5-min Rain = 0
KLO1 140014Z 16015KT 32/15 A2988 RMK A01 T03170148  RH  036%=      5-min Rain = 0
KLO1 140015Z 16014KT 32/15 A2988 RMK A01 T03170148  RH  036%=      5-min Rain = 0
KLO1 140016Z 16012KT 32/15 A2988 RMK A01 T03170149  RH  036%=      5-min Rain = 0
KLO1 140017Z 16015KT 32/15 A2988 RMK A01 T03170149  RH  036%=      5-min Rain = 0
KLO1 140018Z 16013KT 32/15 A2988 RMK A01 T03170149  RH  036%=      5-min Rain = 0
KLO1 140019Z 16015KT 32/15 A2988 RMK A01 T03160148  RH  036%=      5-min Rain = 0
KLO1 140020Z 16015KT 32/15 A2988 RMK A01 T03160147  RH  036%=      5-min Rain = 0
KLO1 140021Z 16015KT 32/15 A2988 RMK A01 T03160146  RH  036%=      5-min Rain = 0
KLO1 140022Z 16015G20KT 32/15 A2988 RMK A01 T03150146  RH  036%=      5-min Rain = 0
KLO1 140023Z 16015KT 32/15 A2988 RMK A01 T03150145  RH  036%=      5-min Rain = 0
KLO1 140024Z 16014KT 32/15 A2988 RMK A01 T03150145  RH  036%=      5-min Rain = 0
KLO1 140025Z 16013KT 32/15 A2988 RMK A01 T03150145  RH  036%=      5-min Rain = 0
KLO1 140026Z 16016KT 32/15 A2988 RMK A01 T03150145  RH  036%=      5-min Rain = 0
KLO1 140027Z 16013KT 32/14 A2988 RMK A01 T03150144  RH  036%=      5-min Rain = 0
KLO1 140028Z 15017KT 32/15 A2988 RMK A01 T03150145  RH  036%=      5-min Rain = 0
KLO1 140029Z 15017KT 31/15 A2988 RMK A01 T03140147  RH  036%=      5-min Rain = 0
KLO1 140030Z 16017G22KT 31/15 A2988 RMK A01 T03140148  RH  037%=      5-min Rain = 0
KLO1 140031Z 16017KT 31/15 A2988 RMK A01 T03130148  RH  037%=      5-min Rain = 0
KLO1 140032Z 15018G23KT 31/15 A2988 RMK A01 T03130149  RH  037%=      5-min Rain = 0
KLO1 140033Z 16019KT 31/15 A2988 RMK A01 T03120148  RH  037%=      5-min Rain = 0
KLO1 140034Z 16019KT 31/15 A2988 RMK A01 T03110148  RH  037%=      5-min Rain = 0
KLO1 140035Z 16015G20KT 31/15 A2988 RMK A01 T03110148  RH  037%=      5-min Rain = 0
KLO1 140036Z 16019KT 31/15 A2988 RMK A01 T03110148  RH  037%=      5-min Rain = 0
KLO1 140037Z 15017G22KT 31/15 A2988 RMK A01 T03100147  RH  037%=      5-min Rain = 0
KLO1 140038Z 16013KT 31/15 A2988 RMK A01 T03100146  RH  037%=      5-min Rain = 0
KLO1 140039Z 16014KT 31/15 A2988 RMK A01 T03100146  RH  037%=      5-min Rain = 0
KLO1 140040Z 16018KT 31/15 A2988 RMK A01 T03100145  RH  037%=      5-min Rain = 0
KLO1 140041Z 16017KT 31/15 A2988 RMK A01 T03100145  RH  037%=      5-min Rain = 0
KLO1 140042Z 16018KT 31/15 A2988 RMK A01 T03100145  RH  037%=      5-min Rain = 0
KLO1 140043Z 16017KT 31/14 A2988 RMK A01 T03100143  RH  036%=      5-min Rain = 0
KLO1 140044Z 16019KT 31/14 A2988 RMK A01 T03090142  RH  036%=      5-min Rain = 0
KLO1 140045Z 16015KT 31/14 A2988 RMK A01 T03090142  RH  036%=      5-min Rain = 0
KLO1 140046Z 16019KT 31/15 A2988 RMK A01 T03090149  RH  038%=      5-min Rain = 0
KLO1 140047Z 16020KT 31/16 A2988 RMK A01 T03070158  RH  040%=      5-min Rain = 0
KLO1 140048Z 16020KT 31/16 A2988 RMK A01 T03060161  RH  042%=      5-min Rain = 0
KLO1 140049Z 17017KT 30/16 A2988 RMK A01 T03040163  RH  042%=      5-min Rain = 0
KLO1 140050Z 16020G26KT 30/16 A2988 RMK A01 T03040164  RH  043%=      5-min Rain = 0
KLO1 140051Z 17019KT 30/16 A2988 RMK A01 T03030164  RH  043%=      5-min Rain = 0
KLO1 140052Z 17021KT 30/17 A2988 RMK A01 T03020165  RH  044%=      5-min Rain = 0
KLO1 140053Z 16017G23KT 30/17 A2988 RMK A01 T03020166  RH  044%=      5-min Rain = 0
KLO1 140054Z 16020KT 30/17 A2988 RMK A01 T03010167  RH  044%=      5-min Rain = 0
KLO1 140055Z 16019KT 30/17 A2988 RMK A01 T03000167  RH  045%=      5-min Rain = 0
KLO1 140056Z 16019KT 30/17 A2988 RMK A01 T02990167  RH  045%=      5-min Rain = 0
KLO1 140057Z 16015G20KT 30/17 A2988 RMK A01 T02990168  RH  045%=      5-min Rain = 0
KLO1 140058Z 16017KT 30/17 A2988 RMK A01 T02990168  RH  045%=      5-min Rain = 0
KLO1 140059Z 16019KT 30/17 A2988 RMK A01 T02980168  RH  046%=      5-min Rain = 0
KLO1 140100Z 16015KT 30/17 A2988 RMK A01 T02970168  RH  046%=      5-min Rain = 0
KLO1 140101Z 16017KT 30/17 A2988 RMK A01 T02970168  RH  046%=      5-min Rain = 0
KLO1 140102Z 16017KT 30/17 A2988 RMK A01 T02970168  RH  046%=      5-min Rain = 0
KLO1 140103Z 16017KT 30/17 A2988 RMK A01 T02960169  RH  046%=      5-min Rain = 0
KLO1 140104Z 16015KT 30/17 A2988 RMK A01 T02960168  RH  046%=      5-min Rain = 0
KLO1 140105Z 16017KT 30/17 A2988 RMK A01 T02960168  RH  046%=      5-min Rain = 0
KLO1 140106Z 16017KT 30/17 A2988 RMK A01 T02950168  RH  046%=      5-min Rain = 0
KLO1 140107Z 16016KT 30/17 A2988 RMK A01 T02950168  RH  046%=      5-min Rain = 0
KLO1 140108Z 16015KT 30/17 A2988 RMK A01 T02950168  RH  046%=      5-min Rain = 0
KLO1 140109Z 16019KT 30/17 A2988 RMK A01 T02950168  RH  046%=      5-min Rain = 0
KLO1 140110Z 16019KT 30/17 A2988 RMK A01 T02950168  RH  047%=      5-min Rain = 0
KLO1 140111Z 16017G22KT 29/17 A2988 RMK A01 T02940169  RH  047%=      5-min Rain = 0
KLO1 140112Z 16018KT 29/17 A2988 RMK A01 T02940169  RH  047%=      5-min Rain = 0
KLO1 140113Z 16017G22KT 29/17 A2988 RMK A01 T02940169  RH  047%=      5-min Rain = 0
KLO1 140114Z 16017KT 29/17 A2988 RMK A01 T02940169  RH  047%=      5-min Rain = 0
KLO1 140115Z 16016KT 29/17 A2988 RMK A01 T02930169  RH  047%=      5-min Rain = 0
KLO1 140116Z 16016KT 29/17 A2988 RMK A01 T02930169  RH  047%=      5-min Rain = 0
KLO1 140117Z 16017KT 29/17 A2988 RMK A01 T02930169  RH  047%=      5-min Rain = 0
KLO1 140118Z 16019KT 29/17 A2988 RMK A01 T02930169  RH  047%=      5-min Rain = 0
KLO1 140119Z 16018KT 29/17 A2988 RMK A01 T02930170  RH  047%=      5-min Rain = 0
KLO1 140120Z 16017KT 29/17 A2988 RMK A01 T02920169  RH  047%=      5-min Rain = 0
KLO1 140121Z 16014KT 29/17 A2988 RMK A01 T02920169  RH  048%=      5-min Rain = 0
KLO1 140122Z 16014KT 29/17 A2988 RMK A01 T02920169  RH  048%=      5-min Rain = 0
KLO1 140123Z 16015KT 29/17 A2988 RMK A01 T02910169  RH  048%=      5-min Rain = 0
KLO1 140124Z 16017KT 29/17 A2988 RMK A01 T02910169  RH  048%=      5-min Rain = 0
KLO1 140125Z 16017KT 29/17 A2988 RMK A01 T02910169  RH  048%=      5-min Rain = 0
KLO1 140126Z 16017KT 29/17 A2988 RMK A01 T02910168  RH  048%=      5-min Rain = 0
KLO1 140127Z 16016KT 29/17 A2988 RMK A01 T02910168  RH  047%=      5-min Rain = 0
KLO1 140128Z 16019KT 29/17 A2988 RMK A01 T02910167  RH  047%=      5-min Rain = 0
KLO1 140129Z 16017KT 29/17 A2988 RMK A01 T02910167  RH  047%=      5-min Rain = 0
KLO1 140130Z 16015KT 29/17 A2988 RMK A01 T02900166  RH  047%=      5-min Rain = 0
KLO1 140131Z 16017KT 29/17 A2988 RMK A01 T02900166  RH  047%=      5-min Rain = 0
KLO1 140132Z 16015KT 29/17 A2988 RMK A01 T02900166  RH  047%=      5-min Rain = 0
KLO1 140133Z 15018KT 29/17 A2988 RMK A01 T02900166  RH  047%=      5-min Rain = 0
KLO1 140134Z 15015KT 29/17 A2988 RMK A01 T02900166  RH  047%=      5-min Rain = 0
KLO1 140135Z 15014KT 29/17 A2988 RMK A01 T02900166  RH  047%=      5-min Rain = 0
KLO1 140136Z 15016KT 29/17 A2988 RMK A01 T02900166  RH  047%=      5-min Rain = 0
KLO1 140137Z 16016KT 29/16 A2988 RMK A01 T02890163  RH  046%=      5-min Rain = 0
KLO1 140138Z 16015KT 29/16 A2988 RMK A01 T02890163  RH  046%=      5-min Rain = 0
KLO1 140139Z 15013KT 29/16 A2988 RMK A01 T02890163  RH  046%=      5-min Rain = 0
KLO1 140140Z 16013KT 29/16 A2988 RMK A01 T02900164  RH  047%=      5-min Rain = 0
KLO1 140141Z 16013KT 29/16 A2988 RMK A01 T02890164  RH  047%=      5-min Rain = 0
KLO1 140142Z 15012KT 29/16 A2988 RMK A01 T02890164  RH  047%=      5-min Rain = 0
KLO1 140143Z 15010KT 29/16 A2989 RMK A01 T02880163  RH  047%=      5-min Rain = 0
KLO1 140144Z 16013KT 29/16 A2989 RMK A01 T02880164  RH  047%=      5-min Rain = 0
KLO1 140145Z 16014KT 29/16 A2989 RMK A01 T02880164  RH  047%=      5-min Rain = 0
KLO1 140146Z 16015KT 29/16 A2989 RMK A01 T02880164  RH  047%=      5-min Rain = 0
KLO1 140147Z 16014KT 29/16 A2989 RMK A01 T02880164  RH  047%=      5-min Rain = 0
KLO1 140148Z 16012KT 29/16 A2989 RMK A01 T02880164  RH  047%=      5-min Rain = 0
KLO1 140149Z 15014KT 29/16 A2989 RMK A01 T02870164  RH  047%=      5-min Rain = 0
KLO1 140150Z 15014KT 29/16 A2989 RMK A01 T02870164  RH  047%=      5-min Rain = 0
KLO1 140151Z 15012KT 29/16 A2989 RMK A01 T02870164  RH  047%=      5-min Rain = 0
KLO1 140152Z 16015KT 29/16 A2989 RMK A01 T02870164  RH  047%=      5-min Rain = 0
KLO1 140153Z 16014KT 29/16 A2989 RMK A01 T02870164  RH  047%=      5-min Rain = 0
KLO1 140154Z 16014KT 29/16 A2989 RMK A01 T02870164  RH  047%=      5-min Rain = 0
KLO1 140155Z 16012KT 29/16 A2989 RMK A01 T02860163  RH  047%=      5-min Rain = 0
KLO1 140156Z 15014KT 29/16 A2989 RMK A01 T02860162  RH  047%=      5-min Rain = 0
KLO1 140157Z 15012KT 29/16 A2989 RMK A01 T02860162  RH  047%=      5-min Rain = 0
KLO1 140158Z 15011KT 29/16 A2989 RMK A01 T02860163  RH  047%=      5-min Rain = 0
KLO1 140159Z 15013KT 29/16 A2989 RMK A01 T02850163  RH  048%=      5-min Rain = 0
KLO1 140200Z 15013KT 29/16 A2989 RMK A01 T02850163  RH  048%=      5-min Rain = 0
KLO1 140201Z 15014KT 29/16 A2989 RMK A01 T02850164  RH  048%=      5-min Rain = 0
KLO1 140202Z 16015KT 29/16 A2989 RMK A01 T02850163  RH  048%=      5-min Rain = 0
KLO1 140203Z 16014KT 29/16 A2989 RMK A01 T02850163  RH  048%=      5-min Rain = 0
KLO1 140204Z 16012KT 29/16 A2989 RMK A01 T02850163  RH  048%=      5-min Rain = 0
KLO1 140205Z 15011KT 28/16 A2989 RMK A01 T02840163  RH  048%=      5-min Rain = 0
KLO1 140206Z 16012KT 28/16 A2989 RMK A01 T02840163  RH  048%=      5-min Rain = 0
KLO1 140207Z 16014KT 28/16 A2989 RMK A01 T02840162  RH  048%=      5-min Rain = 0
KLO1 140208Z 15014KT 28/16 A2989 RMK A01 T02840161  RH  047%=      5-min Rain = 0
KLO1 140209Z 16013KT 28/16 A2989 RMK A01 T02840161  RH  047%=      5-min Rain = 0
KLO1 140210Z 16012KT 29/16 A2989 RMK A01 T02850161  RH  047%=      5-min Rain = 0
KLO1 140211Z 16011KT 28/16 A2989 RMK A01 T02840161  RH  047%=      5-min Rain = 0
KLO1 140212Z 16012KT 28/16 A2989 RMK A01 T02840160  RH  047%=      5-min Rain = 0
KLO1 140213Z 16015KT 28/16 A2989 RMK A01 T02830160  RH  047%=      5-min Rain = 0
KLO1 140214Z 16014KT 28/16 A2989 RMK A01 T02830159  RH  047%=      5-min Rain = 0
KLO1 140215Z 16013KT 28/16 A2989 RMK A01 T02840159  RH  047%=      5-min Rain = 0
KLO1 140216Z 16012KT 28/16 A2989 RMK A01 T02840158  RH  046%=      5-min Rain = 0
KLO1 140217Z 16013KT 28/16 A2989 RMK A01 T02840158  RH  046%=      5-min Rain = 0
KLO1 140218Z 16014KT 28/16 A2989 RMK A01 T02840158  RH  046%=      5-min Rain = 0
KLO1 140219Z 16014KT 28/16 A2989 RMK A01 T02840157  RH  046%=      5-min Rain = 0
KLO1 140220Z 16013KT 28/16 A2989 RMK A01 T02840156  RH  046%=      5-min Rain = 0
KLO1 140221Z 16013KT 28/16 A2989 RMK A01 T02840156  RH  046%=      5-min Rain = 0
KLO1 140222Z 16013KT 28/16 A2989 RMK A01 T02840156  RH  046%=      5-min Rain = 0
KLO1 140223Z 16013KT 28/16 A299 RMK A01 T02830156  RH  046%=      5-min Rain = 0
KLO1 140224Z 16014KT 28/16 A299 RMK A01 T02830156  RH  046%=      5-min Rain = 0
KLO1 140225Z 16012KT 28/16 A299 RMK A01 T02830156  RH  046%=      5-min Rain = 0
KLO1 140226Z 16013KT 28/16 A299 RMK A01 T02830155  RH  046%=      5-min Rain = 0
KLO1 140227Z 16012KT 28/16 A299 RMK A01 T02830155  RH  046%=      5-min Rain = 0
KLO1 140228Z 16014KT 28/16 A299 RMK A01 T02830156  RH  046%=      5-min Rain = 0
KLO1 140229Z 16013KT 28/16 A299 RMK A01 T02830156  RH  046%=      5-min Rain = 0
KLO1 140230Z 16012KT 28/16 A299 RMK A01 T02830156  RH  046%=      5-min Rain = 0
KLO1 140231Z 16013KT 28/16 A299 RMK A01 T02830156  RH  046%=      5-min Rain = 0
KLO1 140232Z 16013KT 28/16 A299 RMK A01 T02830156  RH  046%=      5-min Rain = 0
KLO1 140233Z 16016KT 28/16 A299 RMK A01 T02830156  RH  046%=      5-min Rain = 0
KLO1 140234Z 16013KT 28/16 A299 RMK A01 T02820156  RH  046%=      5-min Rain = 0
KLO1 140235Z 16013KT 28/16 A299 RMK A01 T02830157  RH  046%=      5-min Rain = 0
KLO1 140236Z 16012KT 28/16 A299 RMK A01 T02820157  RH  046%=      5-min Rain = 0
KLO1 140237Z 16014KT 28/16 A299 RMK A01 T02820157  RH  047%=      5-min Rain = 0
KLO1 140238Z 16014KT 28/16 A299 RMK A01 T02820157  RH  047%=      5-min Rain = 0
KLO1 140239Z 16015KT 28/16 A299 RMK A01 T02820158  RH  047%=      5-min Rain = 0
KLO1 140240Z 16015KT 28/16 A299 RMK A01 T02820158  RH  047%=      5-min Rain = 0
KLO1 140241Z 16014KT 28/16 A299 RMK A01 T02820158  RH  047%=      5-min Rain = 0
KLO1 140242Z 16013KT 28/16 A299 RMK A01 T02810158  RH  047%=      5-min Rain = 0
KLO1 140243Z 16015KT 28/16 A299 RMK A01 T02810158  RH  047%=      5-min Rain = 0
KLO1 140244Z 16015KT 28/16 A299 RMK A01 T02810158  RH  047%=      5-min Rain = 0
KLO1 140245Z 16014KT 28/16 A299 RMK A01 T02810158  RH  047%=      5-min Rain = 0
KLO1 140246Z 16015KT 28/16 A299 RMK A01 T02810158  RH  047%=      5-min Rain = 0
KLO1 140247Z 16012KT 28/16 A299 RMK A01 T02810158  RH  047%=      5-min Rain = 0
KLO1 140248Z 16012KT 28/16 A299 RMK A01 T02810158  RH  047%=      5-min Rain = 0
KLO1 140249Z 16013KT 28/16 A299 RMK A01 T02800158  RH  047%=      5-min Rain = 0
KLO1 140250Z 16014KT 28/16 A299 RMK A01 T02800159  RH  047%=      5-min Rain = 0
KLO1 140251Z 16014KT 28/16 A299 RMK A01 T02800159  RH  048%=      5-min Rain = 0
KLO1 140252Z 16013KT 28/16 A299 RMK A01 T02800158  RH  047%=      5-min Rain = 0
KLO1 140253Z 16013KT 28/16 A299 RMK A01 T02800158  RH  047%=      5-min Rain = 0
KLO1 140254Z 16014KT 28/16 A299 RMK A01 T02800158  RH  047%=      5-min Rain = 0
KLO1 140255Z 16014KT 28/16 A299 RMK A01 T02800158  RH  047%=      5-min Rain = 0
KLO1 140256Z 16013KT 28/16 A299 RMK A01 T02800158  RH  047%=      5-min Rain = 0
KLO1 140257Z 16014KT 28/16 A299 RMK A01 T02790158  RH  048%=      5-min Rain = 0
KLO1 140258Z 16013KT 28/16 A299 RMK A01 T02790158  RH  048%=      5-min Rain = 0
KLO1 140259Z 16013KT 28/16 A299 RMK A01 T02790158  RH  048%=      5-min Rain = 0
KLO1 140300Z 16015KT 28/16 A299 RMK A01 T02790158  RH  048%=      5-min Rain = 0
KLO1 140301Z 16012KT 28/16 A299 RMK A01 T02790158  RH  048%=      5-min Rain = 0
KLO1 140302Z 16014KT 28/16 A299 RMK A01 T02790158  RH  048%=      5-min Rain = 0
KLO1 140303Z 16016KT 28/16 A299 RMK A01 T02780158  RH  048%=      5-min Rain = 0
KLO1 140304Z 16016KT 28/16 A299 RMK A01 T02790158  RH  048%=      5-min Rain = 0
KLO1 140305Z 16014KT 28/16 A299 RMK A01 T02790158  RH  048%=      5-min Rain = 0
KLO1 140306Z 16015KT 28/16 A299 RMK A01 T02790158  RH  048%=      5-min Rain = 0
KLO1 140307Z 17018KT 28/16 A299 RMK A01 T02790159  RH  048%=      5-min Rain = 0
KLO1 140308Z 17015KT 28/16 A299 RMK A01 T02780158  RH  048%=      5-min Rain = 0
KLO1 140309Z 16017KT 28/16 A299 RMK A01 T02780158  RH  048%=      5-min Rain = 0
KLO1 140310Z 17015KT 28/16 A299 RMK A01 T02780158  RH  048%=      5-min Rain = 0
KLO1 140311Z 17015G20KT 28/16 A299 RMK A01 T02780158  RH  048%=      5-min Rain = 0
KLO1 140312Z 17017KT 28/16 A2991 RMK A01 T02780159  RH  048%=      5-min Rain = 0
KLO1 140313Z 17016KT 28/16 A2991 RMK A01 T02780159  RH  048%=      5-min Rain = 0
KLO1 140314Z 17015KT 28/16 A2991 RMK A01 T02780159  RH  048%=      5-min Rain = 0
KLO1 140315Z 17015G21KT 28/16 A2991 RMK A01 T02780159  RH  048%=      5-min Rain = 0
KLO1 140316Z 16018KT 28/16 A2991 RMK A01 T02780159  RH  048%=      5-min Rain = 0
KLO1 140317Z 17014KT 28/16 A2991 RMK A01 T02780159  RH  049%=      5-min Rain = 0
KLO1 140318Z 17015KT 28/16 A2991 RMK A01 T02780159  RH  049%=      5-min Rain = 0
KLO1 140319Z 17015KT 28/16 A2991 RMK A01 T02770159  RH  049%=      5-min Rain = 0
KLO1 140320Z 17016KT 28/16 A2991 RMK A01 T02770159  RH  049%=      5-min Rain = 0
KLO1 140321Z 17014KT 28/16 A2991 RMK A01 T02770159  RH  049%=      5-min Rain = 0
KLO1 140322Z 17014KT 28/16 A2991 RMK A01 T02770159  RH  049%=      5-min Rain = 0
KLO1 140323Z 17015G20KT 28/16 A2991 RMK A01 T02770160  RH  049%=      5-min Rain = 0
KLO1 140324Z 17015KT 28/16 A2991 RMK A01 T02770159  RH  049%=      5-min Rain = 0
KLO1 140325Z 17014KT 28/16 A2991 RMK A01 T02760159  RH  049%=      5-min Rain = 0
KLO1 140326Z 17014KT 28/16 A2991 RMK A01 T02770160  RH  049%=      5-min Rain = 0
KLO1 140327Z 17015KT 28/16 A2992 RMK A01 T02770159  RH  049%=      5-min Rain = 0
KLO1 140328Z 17018KT 28/16 A2992 RMK A01 T02770159  RH  049%=      5-min Rain = 0
KLO1 140329Z 17016KT 28/16 A2992 RMK A01 T02770160  RH  049%=      5-min Rain = 0
KLO1 140330Z 17016KT 28/16 A2992 RMK A01 T02770159  RH  049%=      5-min Rain = 0
KLO1 140331Z 17019KT 28/16 A2992 RMK A01 T02770159  RH  049%=      5-min Rain = 0
KLO1 140332Z 17018KT 28/16 A2992 RMK A01 T02770159  RH  049%=      5-min Rain = 0
KLO1 140333Z 17017KT 28/16 A2992 RMK A01 T02770160  RH  049%=      5-min Rain = 0
KLO1 140334Z 17018KT 28/16 A2992 RMK A01 T02770160  RH  049%=      5-min Rain = 0
KLO1 140335Z 17019KT 28/16 A2992 RMK A01 T02770159  RH  049%=      5-min Rain = 0
KLO1 140336Z 17019KT 28/16 A2991 RMK A01 T02770159  RH  049%=      5-min Rain = 0
KLO1 140337Z 17019KT 28/16 A2991 RMK A01 T02770159  RH  049%=      5-min Rain = 0
KLO1 140338Z 17017KT 28/16 A2992 RMK A01 T02770160  RH  049%=      5-min Rain = 0
KLO1 140339Z 17018KT 28/16 A2991 RMK A01 T02770160  RH  049%=      5-min Rain = 0
KLO1 140340Z 17018KT 28/16 A2992 RMK A01 T02770160  RH  049%=      5-min Rain = 0
KLO1 140341Z 17016KT 28/16 A2992 RMK A01 T02760160  RH  049%=      5-min Rain = 0
KLO1 140342Z 17016G23KT 28/16 A2992 RMK A01 T02760160  RH  049%=      5-min Rain = 0
KLO1 140343Z 17018KT 28/16 A2992 RMK A01 T02760160  RH  049%=      5-min Rain = 0
KLO1 140344Z 17022KT 28/16 A2991 RMK A01 T02750160  RH  049%=      5-min Rain = 0
KLO1 140345Z 17017KT 28/16 A2992 RMK A01 T02760160  RH  049%=      5-min Rain = 0
KLO1 140346Z 17020KT 28/16 A2992 RMK A01 T02760160  RH  049%=      5-min Rain = 0
KLO1 140347Z 17016KT 28/16 A2992 RMK A01 T02760160  RH  049%=      5-min Rain = 0
KLO1 140348Z 17016KT 28/16 A2992 RMK A01 T02750160  RH  049%=      5-min Rain = 0
KLO1 140349Z 17019KT 28/16 A2992 RMK A01 T02750160  RH  050%=      5-min Rain = 0
KLO1 140350Z 17017KT 28/16 A2992 RMK A01 T02750160  RH  050%=      5-min Rain = 0
KLO1 140351Z 17015G20KT 27/16 A2992 RMK A01 T02740160  RH  050%=      5-min Rain = 0
KLO1 140352Z 17018KT 27/16 A2992 RMK A01 T02740160  RH  050%=      5-min Rain = 0
KLO1 140353Z 17017G22KT 27/16 A2992 RMK A01 T02740161  RH  050%=      5-min Rain = 0
KLO1 140354Z 17020KT 27/16 A2992 RMK A01 T02740161  RH  050%=      5-min Rain = 0
KLO1 140355Z 17019KT 27/16 A2992 RMK A01 T02740161  RH  050%=      5-min Rain = 0
KLO1 140356Z 18016KT 27/16 A2992 RMK A01 T02740160  RH  050%=      5-min Rain = 0
KLO1 140357Z 18014KT 27/16 A2992 RMK A01 T02730160  RH  050%=      5-min Rain = 0
KLO1 140358Z 18015KT 27/16 A2992 RMK A01 T02730160  RH  050%=      5-min Rain = 0
KLO1 140359Z 18015KT 27/16 A2992 RMK A01 T02720160  RH  050%=      5-min Rain = 0
KLO1 140400Z 17016KT 27/16 A2992 RMK A01 T02720160  RH  050%=      5-min Rain = 0
KLO1 140401Z 17015KT 27/16 A2992 RMK A01 T02720160  RH  051%=      5-min Rain = 0
KLO1 140402Z 18016KT 27/16 A2992 RMK A01 T02710160  RH  051%=      5-min Rain = 0
KLO1 140403Z 18015KT 27/16 A2992 RMK A01 T02720161  RH  051%=      5-min Rain = 0
KLO1 140404Z 17014KT 27/16 A2992 RMK A01 T02710161  RH  051%=      5-min Rain = 0
KLO1 140405Z 18017G22KT 27/16 A2992 RMK A01 T02710161  RH  051%=      5-min Rain = 0
KLO1 140406Z 18015KT 27/16 A2992 RMK A01 T02710162  RH  051%=      5-min Rain = 0
KLO1 140407Z 18021KT 27/16 A2992 RMK A01 T02710162  RH  051%=      5-min Rain = 0
KLO1 140408Z 18017KT 27/16 A2992 RMK A01 T02710162  RH  051%=      5-min Rain = 0
KLO1 140409Z 18017KT 27/16 A2992 RMK A01 T02710162  RH  051%=      5-min Rain = 0
KLO1 140410Z 18016KT 27/16 A2992 RMK A01 T02710162  RH  051%=      5-min Rain = 0
KLO1 140411Z 17019KT 27/16 A2992 RMK A01 T02700162  RH  052%=      5-min Rain = 0
KLO1 140412Z 18019KT 27/16 A2992 RMK A01 T02700162  RH  052%=      5-min Rain = 0
KLO1 140413Z 18020KT 27/16 A2992 RMK A01 T02700163  RH  052%=      5-min Rain = 0
KLO1 140414Z 17019KT 27/16 A2992 RMK A01 T02700163  RH  052%=      5-min Rain = 0
KLO1 140415Z 17020KT 27/16 A2992 RMK A01 T02700163  RH  052%=      5-min Rain = 0
KLO1 140416Z 17019KT 27/16 A2992 RMK A01 T02700163  RH  052%=      5-min Rain = 0
KLO1 140417Z 17020KT 27/16 A2992 RMK A01 T02700163  RH  052%=      5-min Rain = 0
KLO1 140418Z 18016KT 27/16 A2992 RMK A01 T02700163  RH  052%=      5-min Rain = 0
KLO1 140419Z 18016KT 27/16 A2992 RMK A01 T02690163  RH  052%=      5-min Rain = 0
KLO1 140420Z 18017G24KT 27/16 A2992 RMK A01 T02680163  RH  052%=      5-min Rain = 0
KLO1 140421Z 18019G24KT 27/16 A2992 RMK A01 T02680163  RH  053%=      5-min Rain = 0
KLO1 140422Z 17018G23KT 27/16 A2992 RMK A01 T02680164  RH  053%=      5-min Rain = 0
KLO1 140423Z 18020KT 27/16 A2993 RMK A01 T02680164  RH  053%=      5-min Rain = 0
KLO1 140424Z 18020KT 27/16 A2992 RMK A01 T02680164  RH  053%=      5-min Rain = 0
KLO1 140425Z 17018KT 27/16 A2993 RMK A01 T02680164  RH  053%=      5-min Rain = 0
KLO1 140426Z 18018KT 27/17 A2993 RMK A01 T02680165  RH  053%=      5-min Rain = 0
KLO1 140427Z 18014KT 27/17 A2993 RMK A01 T02670165  RH  053%=      5-min Rain = 0
KLO1 140428Z 18017KT 27/16 A2993 RMK A01 T02670164  RH  053%=      5-min Rain = 0
KLO1 140429Z 18015KT 27/17 A2992 RMK A01 T02660165  RH  054%=      5-min Rain = 0
KLO1 140430Z 18017KT 27/16 A2992 RMK A01 T02660164  RH  054%=      5-min Rain = 0
KLO1 140431Z 18017KT 27/16 A2993 RMK A01 T02660164  RH  054%=      5-min Rain = 0
KLO1 140432Z 18014G19KT 27/16 A2993 RMK A01 T02660164  RH  054%=      5-min Rain = 0
KLO1 140433Z 18014KT 27/16 A2993 RMK A01 T02660164  RH  054%=      5-min Rain = 0
KLO1 140434Z 18015KT 27/16 A2993 RMK A01 T02650164  RH  054%=      5-min Rain = 0
KLO1 140435Z 18013G18KT 27/16 A2993 RMK A01 T02650164  RH  054%=      5-min Rain = 0
KLO1 140436Z 18015KT 27/16 A2992 RMK A01 T02650164  RH  054%=      5-min Rain = 0
KLO1 140437Z 18016KT 26/16 A2992 RMK A01 T02640164  RH  054%=      5-min Rain = 0
KLO1 140438Z 18015KT 26/16 A2992 RMK A01 T02640164  RH  054%=      5-min Rain = 0
KLO1 140439Z 18014KT 26/16 A2992 RMK A01 T02640164  RH  054%=      5-min Rain = 0
KLO1 140440Z 18015KT 26/16 A2992 RMK A01 T02640164  RH  054%=      5-min Rain = 0
KLO1 140441Z 18016KT 26/16 A2992 RMK A01 T02640164  RH  054%=      5-min Rain = 0
KLO1 140442Z 19018KT 26/16 A2992 RMK A01 T02640164  RH  054%=      5-min Rain = 0
KLO1 140443Z 19018KT 26/16 A2992 RMK A01 T02640164  RH  054%=      5-min Rain = 0
KLO1 140444Z 18018KT 26/17 A2992 RMK A01 T02640165  RH  054%=      5-min Rain = 0
KLO1 140445Z 18016KT 26/17 A2993 RMK A01 T02640165  RH  054%=      5-min Rain = 0
KLO1 140446Z 18015KT 26/17 A2993 RMK A01 T02630165  RH  055%=      5-min Rain = 0
KLO1 140447Z 19017G22KT 26/17 A2992 RMK A01 T02630165  RH  055%=      5-min Rain = 0
KLO1 140448Z 18018KT 26/17 A2992 RMK A01 T02630165  RH  055%=      5-min Rain = 0
KLO1 140449Z 18017G22KT 26/17 A2992 RMK A01 T02630165  RH  055%=      5-min Rain = 0
KLO1 140450Z 18017KT 26/17 A2992 RMK A01 T02630166  RH  055%=      5-min Rain = 0
KLO1 140451Z 18018KT 26/17 A2992 RMK A01 T02620165  RH  055%=      5-min Rain = 0
KLO1 140452Z 19017KT 26/17 A2992 RMK A01 T02620166  RH  055%=      5-min Rain = 0
KLO1 140453Z 18018KT 26/17 A2992 RMK A01 T02620166  RH  055%=      5-min Rain = 0
KLO1 140454Z 18016G21KT 26/17 A2992 RMK A01 T02620166  RH  056%=      5-min Rain = 0
KLO1 140455Z 18019KT 26/17 A2992 RMK A01 T02620167  RH  056%=      5-min Rain = 0
KLO1 140456Z 18020KT 26/17 A2992 RMK A01 T02620167  RH  056%=      5-min Rain = 0
KLO1 140457Z 18018KT 26/17 A2992 RMK A01 T02610167  RH  056%=      5-min Rain = 0
KLO1 140458Z 19015KT 26/17 A2992 RMK A01 T02610167  RH  056%=      5-min Rain = 0
KLO1 140459Z 19015KT 26/17 A2992 RMK A01 T02610167  RH  056%=      5-min Rain = 0

Page generated in 0.0898 seconds.